<?xml version='1.0' encoding='UTF-8'?><gpx version="1.1" creator="JPX - https://github.com/jenetics/jpx" xmlns="http://www.topografix.com/GPX/1/1"><trk><trkseg><trkpt lat="43.1856518" lon="12.8223143"><ele>1016.0000000000001</ele><time>2026-05-02T12:33:44.205Z</time></trkpt><trkpt lat="43.1856005" lon="12.8223698"><ele>1016.0</ele><time>2026-05-02T12:33:45.205Z</time></trkpt><trkpt lat="43.185543" lon="12.8224305"><ele>1016.0</ele><time>2026-05-02T12:33:46.205Z</time></trkpt><trkpt lat="43.1854838" lon="12.8224976"><ele>1016.0</ele><time>2026-05-02T12:33:47.204Z</time></trkpt><trkpt lat="43.1854207" lon="12.822569"><ele>1016.0000000000001</ele><time>2026-05-02T12:33:48.205Z</time></trkpt><trkpt lat="43.1853712" lon="12.8226238"><ele>1016.0</ele><time>2026-05-02T12:33:49.205Z</time></trkpt><trkpt lat="43.1852824" lon="12.8227276"><ele>1018.3333333333334</ele><time>2026-05-02T12:33:51.205Z</time></trkpt><trkpt lat="43.1852343" lon="12.8227867"><ele>1020.6666666666667</ele><time>2026-05-02T12:33:53.205Z</time></trkpt><trkpt lat="43.1851614" lon="12.8228561"><ele>1023.0</ele><time>2026-05-02T12:34:13.204Z</time></trkpt><trkpt lat="43.1850444" lon="12.822929"><ele>1025.3333333333333</ele><time>2026-05-02T12:34:15.205Z</time></trkpt><trkpt lat="43.1849742" lon="12.8229624"><ele>1027.6666666666665</ele><time>2026-05-02T12:34:16.206Z</time></trkpt><trkpt lat="43.1849125" lon="12.8229926"><ele>1030.0</ele><time>2026-05-02T12:34:17.205Z</time></trkpt><trkpt lat="43.1847953" lon="12.8230852"><ele>1030.0</ele><time>2026-05-02T12:34:19.205Z</time></trkpt><trkpt lat="43.1847298" lon="12.8231468"><ele>1030.0</ele><time>2026-05-02T12:34:20.205Z</time></trkpt><trkpt lat="43.184664" lon="12.8232193"><ele>1030.0</ele><time>2026-05-02T12:34:21.205Z</time></trkpt><trkpt lat="43.1845984" lon="12.823301"><ele>1030.0</ele><time>2026-05-02T12:34:22.205Z</time></trkpt><trkpt lat="43.1845308" lon="12.8233874"><ele>1030.0</ele><time>2026-05-02T12:34:23.205Z</time></trkpt><trkpt lat="43.1844552" lon="12.8234718"><ele>1030.0</ele><time>2026-05-02T12:34:24.206Z</time></trkpt><trkpt lat="43.1843709" lon="12.8235459"><ele>1031.6</ele><time>2026-05-02T12:34:25.204Z</time></trkpt><trkpt lat="43.1842819" lon="12.8236206"><ele>1033.2</ele><time>2026-05-02T12:34:26.205Z</time></trkpt><trkpt lat="43.1841835" lon="12.8237016"><ele>1034.8</ele><time>2026-05-02T12:34:27.204Z</time></trkpt><trkpt lat="43.1840867" lon="12.8237865"><ele>1036.4</ele><time>2026-05-02T12:34:28.205Z</time></trkpt><trkpt lat="43.183998" lon="12.8238688"><ele>1038.0</ele><time>2026-05-02T12:34:29.205Z</time></trkpt><trkpt lat="43.1839316" lon="12.823937"><ele>1038.0</ele><time>2026-05-02T12:34:30.205Z</time></trkpt><trkpt lat="43.1838713" lon="12.8240134"><ele>1038.0</ele><time>2026-05-02T12:34:31.205Z</time></trkpt><trkpt lat="43.1838138" lon="12.8240991"><ele>1038.0</ele><time>2026-05-02T12:34:32.205Z</time></trkpt><trkpt lat="43.1837591" lon="12.8241987"><ele>1038.0</ele><time>2026-05-02T12:34:33.205Z</time></trkpt><trkpt lat="43.1837072" lon="12.8242963"><ele>1038.0</ele><time>2026-05-02T12:34:34.205Z</time></trkpt><trkpt lat="43.1836712" lon="12.8243905"><ele>1038.0</ele><time>2026-05-02T12:34:35.205Z</time></trkpt><trkpt lat="43.1836356" lon="12.8244991"><ele>1040.0</ele><time>2026-05-02T12:34:36.205Z</time></trkpt><trkpt lat="43.1836077" lon="12.8246094"><ele>1042.0</ele><time>2026-05-02T12:34:37.205Z</time></trkpt><trkpt lat="43.1835856" lon="12.8247257"><ele>1044.0</ele><time>2026-05-02T12:34:38.204Z</time></trkpt><trkpt lat="43.1835685" lon="12.8248359"><ele>1046.0</ele><time>2026-05-02T12:34:39.205Z</time></trkpt><trkpt lat="43.183555" lon="12.8249504"><ele>1048.0</ele><time>2026-05-02T12:34:40.205Z</time></trkpt><trkpt lat="43.1835388" lon="12.8250668"><ele>1050.0</ele><time>2026-05-02T12:34:41.205Z</time></trkpt><trkpt lat="43.1835221" lon="12.8251883"><ele>1051.0</ele><time>2026-05-02T12:34:42.205Z</time></trkpt><trkpt lat="43.1835102" lon="12.8253082"><ele>1052.0</ele><time>2026-05-02T12:34:43.205Z</time></trkpt><trkpt lat="43.1835064" lon="12.8254218"><ele>1053.0</ele><time>2026-05-02T12:34:44.205Z</time></trkpt><trkpt lat="43.183517" lon="12.8255241"><ele>1054.0</ele><time>2026-05-02T12:34:45.204Z</time></trkpt><trkpt lat="43.1835396" lon="12.8256158"><ele>1055.0</ele><time>2026-05-02T12:34:46.205Z</time></trkpt><trkpt lat="43.1836063" lon="12.8257501"><ele>1056.0</ele><time>2026-05-02T12:34:48.204Z</time></trkpt><trkpt lat="43.1836495" lon="12.8258129"><ele>1056.0</ele><time>2026-05-02T12:34:49.205Z</time></trkpt><trkpt lat="43.1837327" lon="12.8258586"><ele>1056.0</ele><time>2026-05-02T12:34:51.205Z</time></trkpt><trkpt lat="43.183818" lon="12.825862"><ele>1056.0</ele><time>2026-05-02T12:34:53.204Z</time></trkpt><trkpt lat="43.1839456" lon="12.8258375"><ele>1056.0</ele><time>2026-05-02T12:34:55.205Z</time></trkpt><trkpt lat="43.184025" lon="12.8258085"><ele>1056.0</ele><time>2026-05-02T12:34:56.206Z</time></trkpt><trkpt lat="43.1841101" lon="12.8257749"><ele>1057.6</ele><time>2026-05-02T12:34:57.205Z</time></trkpt><trkpt lat="43.1841939" lon="12.8257395"><ele>1059.1999999999998</ele><time>2026-05-02T12:34:58.205Z</time></trkpt><trkpt lat="43.1842774" lon="12.8257049"><ele>1060.8000000000002</ele><time>2026-05-02T12:34:59.204Z</time></trkpt><trkpt lat="43.1843731" lon="12.8256686"><ele>1062.4</ele><time>2026-05-02T12:35:00.205Z</time></trkpt><trkpt lat="43.184468" lon="12.8256383"><ele>1064.0</ele><time>2026-05-02T12:35:01.206Z</time></trkpt><trkpt lat="43.1845639" lon="12.8256101"><ele>1064.0</ele><time>2026-05-02T12:35:02.205Z</time></trkpt><trkpt lat="43.184651" lon="12.8255894"><ele>1064.0</ele><time>2026-05-02T12:35:03.205Z</time></trkpt><trkpt lat="43.1847373" lon="12.8255909"><ele>1064.0</ele><time>2026-05-02T12:35:04.205Z</time></trkpt><trkpt lat="43.1848418" lon="12.8255976"><ele>1064.0</ele><time>2026-05-02T12:35:05.204Z</time></trkpt><trkpt lat="43.1849458" lon="12.8255918"><ele>1064.0</ele><time>2026-05-02T12:35:06.205Z</time></trkpt><trkpt lat="43.1850519" lon="12.8255631"><ele>1066.8333333333335</ele><time>2026-05-02T12:35:07.204Z</time></trkpt><trkpt lat="43.1851483" lon="12.8255317"><ele>1069.6666666666667</ele><time>2026-05-02T12:35:08.206Z</time></trkpt><trkpt lat="43.1852413" lon="12.8254997"><ele>1072.5</ele><time>2026-05-02T12:35:09.205Z</time></trkpt><trkpt lat="43.1853256" lon="12.8254698"><ele>1075.3333333333333</ele><time>2026-05-02T12:35:10.205Z</time></trkpt><trkpt lat="43.1853996" lon="12.8254581"><ele>1078.1666666666665</ele><time>2026-05-02T12:35:11.205Z</time></trkpt><trkpt lat="43.1854689" lon="12.8254582"><ele>1081.0</ele><time>2026-05-02T12:35:12.204Z</time></trkpt><trkpt lat="43.1855386" lon="12.82547"><ele>1081.0</ele><time>2026-05-02T12:35:13.205Z</time></trkpt><trkpt lat="43.1856415" lon="12.8255428"><ele>1081.0</ele><time>2026-05-02T12:35:15.205Z</time></trkpt><trkpt lat="43.185702" lon="12.8256694"><ele>1081.0</ele><time>2026-05-02T12:35:17.205Z</time></trkpt><trkpt lat="43.1857808" lon="12.8258054"><ele>1081.0</ele><time>2026-05-02T12:35:19.205Z</time></trkpt><trkpt lat="43.1858393" lon="12.8258743"><ele>1081.0</ele><time>2026-05-02T12:35:20.205Z</time></trkpt><trkpt lat="43.1859089" lon="12.8259311"><ele>1082.0</ele><time>2026-05-02T12:35:21.204Z</time></trkpt><trkpt lat="43.1859855" lon="12.825982"><ele>1083.0</ele><time>2026-05-02T12:35:22.205Z</time></trkpt><trkpt lat="43.1860663" lon="12.8260226"><ele>1084.0</ele><time>2026-05-02T12:35:23.205Z</time></trkpt><trkpt lat="43.18615" lon="12.8260614"><ele>1085.0</ele><time>2026-05-02T12:35:24.205Z</time></trkpt><trkpt lat="43.1862398" lon="12.826104"><ele>1086.0</ele><time>2026-05-02T12:35:25.205Z</time></trkpt><trkpt lat="43.1863376" lon="12.8261499"><ele>1086.0</ele><time>2026-05-02T12:35:26.205Z</time></trkpt><trkpt lat="43.1864393" lon="12.8261983"><ele>1086.0</ele><time>2026-05-02T12:35:27.205Z</time></trkpt><trkpt lat="43.186549" lon="12.8262576"><ele>1086.0</ele><time>2026-05-02T12:35:28.205Z</time></trkpt><trkpt lat="43.186669" lon="12.8263175"><ele>1086.0</ele><time>2026-05-02T12:35:29.205Z</time></trkpt><trkpt lat="43.1867901" lon="12.826363"><ele>1089.0</ele><time>2026-05-02T12:35:30.205Z</time></trkpt><trkpt lat="43.1868929" lon="12.8263932"><ele>1092.0</ele><time>2026-05-02T12:35:31.206Z</time></trkpt><trkpt lat="43.1870001" lon="12.8264269"><ele>1095.0</ele><time>2026-05-02T12:35:32.204Z</time></trkpt><trkpt lat="43.1870959" lon="12.8264612"><ele>1098.0</ele><time>2026-05-02T12:35:33.205Z</time></trkpt><trkpt lat="43.1871753" lon="12.826499"><ele>1101.0</ele><time>2026-05-02T12:35:34.205Z</time></trkpt><trkpt lat="43.1872389" lon="12.8265438"><ele>1101.0</ele><time>2026-05-02T12:35:35.205Z</time></trkpt><trkpt lat="43.1873218" lon="12.8266428"><ele>1101.0</ele><time>2026-05-02T12:35:37.205Z</time></trkpt><trkpt lat="43.1873825" lon="12.8267606"><ele>1101.0</ele><time>2026-05-02T12:35:39.204Z</time></trkpt><trkpt lat="43.1874381" lon="12.8268754"><ele>1101.0</ele><time>2026-05-02T12:35:41.206Z</time></trkpt><trkpt lat="43.1875448" lon="12.8269301"><ele>1101.0</ele><time>2026-05-02T12:35:43.205Z</time></trkpt><trkpt lat="43.187621" lon="12.8269465"><ele>1101.8</ele><time>2026-05-02T12:35:44.205Z</time></trkpt><trkpt lat="43.1877041" lon="12.826965"><ele>1102.6</ele><time>2026-05-02T12:35:45.205Z</time></trkpt><trkpt lat="43.1877959" lon="12.8269922"><ele>1103.4</ele><time>2026-05-02T12:35:46.205Z</time></trkpt><trkpt lat="43.1878883" lon="12.8270331"><ele>1104.2</ele><time>2026-05-02T12:35:47.205Z</time></trkpt><trkpt lat="43.1879878" lon="12.8270817"><ele>1105.0</ele><time>2026-05-02T12:35:48.204Z</time></trkpt><trkpt lat="43.1880777" lon="12.8271327"><ele>1106.8</ele><time>2026-05-02T12:35:49.205Z</time></trkpt><trkpt lat="43.1881787" lon="12.8271933"><ele>1108.6</ele><time>2026-05-02T12:35:50.204Z</time></trkpt><trkpt lat="43.1882725" lon="12.8272549"><ele>1110.4</ele><time>2026-05-02T12:35:51.205Z</time></trkpt><trkpt lat="43.1883708" lon="12.8273213"><ele>1112.2</ele><time>2026-05-02T12:35:52.205Z</time></trkpt><trkpt lat="43.1884715" lon="12.827391"><ele>1114.0</ele><time>2026-05-02T12:35:53.204Z</time></trkpt><trkpt lat="43.1885742" lon="12.8274636"><ele>1114.0</ele><time>2026-05-02T12:35:54.205Z</time></trkpt><trkpt lat="43.1886801" lon="12.8275349"><ele>1114.0</ele><time>2026-05-02T12:35:55.205Z</time></trkpt><trkpt lat="43.1887917" lon="12.8276016"><ele>1114.0</ele><time>2026-05-02T12:35:56.205Z</time></trkpt><trkpt lat="43.1888992" lon="12.8276615"><ele>1114.0</ele><time>2026-05-02T12:35:57.204Z</time></trkpt><trkpt lat="43.1889922" lon="12.8277055"><ele>1115.2</ele><time>2026-05-02T12:35:58.204Z</time></trkpt><trkpt lat="43.1890895" lon="12.8277567"><ele>1116.4</ele><time>2026-05-02T12:35:59.205Z</time></trkpt><trkpt lat="43.1891862" lon="12.8278066"><ele>1117.6</ele><time>2026-05-02T12:36:00.205Z</time></trkpt><trkpt lat="43.1892844" lon="12.8278526"><ele>1118.8</ele><time>2026-05-02T12:36:01.205Z</time></trkpt><trkpt lat="43.1893817" lon="12.8278958"><ele>1120.0</ele><time>2026-05-02T12:36:02.204Z</time></trkpt><trkpt lat="43.1894787" lon="12.827937"><ele>1120.0</ele><time>2026-05-02T12:36:03.205Z</time></trkpt><trkpt lat="43.189565" lon="12.8279697"><ele>1120.0</ele><time>2026-05-02T12:36:04.205Z</time></trkpt><trkpt lat="43.1896466" lon="12.8279972"><ele>1120.0</ele><time>2026-05-02T12:36:05.205Z</time></trkpt><trkpt lat="43.1897359" lon="12.8280314"><ele>1120.0</ele><time>2026-05-02T12:36:06.205Z</time></trkpt><trkpt lat="43.1898229" lon="12.8280702"><ele>1120.0</ele><time>2026-05-02T12:36:07.205Z</time></trkpt><trkpt lat="43.1899161" lon="12.828108"><ele>1122.2</ele><time>2026-05-02T12:36:08.205Z</time></trkpt><trkpt lat="43.1900142" lon="12.8281553"><ele>1124.4</ele><time>2026-05-02T12:36:09.204Z</time></trkpt><trkpt lat="43.1900999" lon="12.8282004"><ele>1126.6</ele><time>2026-05-02T12:36:10.205Z</time></trkpt><trkpt lat="43.190183" lon="12.8282444"><ele>1128.8</ele><time>2026-05-02T12:36:11.204Z</time></trkpt><trkpt lat="43.1902676" lon="12.8282936"><ele>1131.0</ele><time>2026-05-02T12:36:12.205Z</time></trkpt><trkpt lat="43.1903508" lon="12.8283416"><ele>1131.0</ele><time>2026-05-02T12:36:13.205Z</time></trkpt><trkpt lat="43.1904208" lon="12.8283883"><ele>1131.0</ele><time>2026-05-02T12:36:14.204Z</time></trkpt><trkpt lat="43.190484" lon="12.828431"><ele>1131.0</ele><time>2026-05-02T12:36:15.205Z</time></trkpt><trkpt lat="43.1905527" lon="12.828473"><ele>1131.0</ele><time>2026-05-02T12:36:16.205Z</time></trkpt><trkpt lat="43.1906288" lon="12.8285207"><ele>1131.0</ele><time>2026-05-02T12:36:17.205Z</time></trkpt><trkpt lat="43.1907087" lon="12.8285717"><ele>1131.0</ele><time>2026-05-02T12:36:18.205Z</time></trkpt><trkpt lat="43.1907881" lon="12.8286152"><ele>1134.1666666666667</ele><time>2026-05-02T12:36:19.205Z</time></trkpt><trkpt lat="43.1908619" lon="12.8286491"><ele>1137.3333333333333</ele><time>2026-05-02T12:36:20.205Z</time></trkpt><trkpt lat="43.1909339" lon="12.828679"><ele>1140.5</ele><time>2026-05-02T12:36:21.204Z</time></trkpt><trkpt lat="43.1910098" lon="12.828706"><ele>1143.6666666666665</ele><time>2026-05-02T12:36:22.205Z</time></trkpt><trkpt lat="43.1910843" lon="12.8287265"><ele>1146.8333333333333</ele><time>2026-05-02T12:36:23.205Z</time></trkpt><trkpt lat="43.1911602" lon="12.8287326"><ele>1150.0</ele><time>2026-05-02T12:36:24.205Z</time></trkpt><trkpt lat="43.191227" lon="12.8287399"><ele>1150.0</ele><time>2026-05-02T12:36:25.204Z</time></trkpt><trkpt lat="43.1913033" lon="12.8287472"><ele>1150.0</ele><time>2026-05-02T12:36:26.205Z</time></trkpt><trkpt lat="43.1913807" lon="12.8287525"><ele>1150.0</ele><time>2026-05-02T12:36:27.205Z</time></trkpt><trkpt lat="43.1914637" lon="12.8287542"><ele>1150.0</ele><time>2026-05-02T12:36:28.204Z</time></trkpt><trkpt lat="43.1915444" lon="12.8287537"><ele>1150.0</ele><time>2026-05-02T12:36:29.205Z</time></trkpt><trkpt lat="43.1916275" lon="12.8287518"><ele>1150.0</ele><time>2026-05-02T12:36:30.205Z</time></trkpt><trkpt lat="43.1917033" lon="12.8287583"><ele>1153.5</ele><time>2026-05-02T12:36:31.205Z</time></trkpt><trkpt lat="43.1917674" lon="12.8287655"><ele>1157.0</ele><time>2026-05-02T12:36:32.204Z</time></trkpt><trkpt lat="43.191842" lon="12.8287942"><ele>1160.5</ele><time>2026-05-02T12:36:34.205Z</time></trkpt><trkpt lat="43.1919006" lon="12.8288456"><ele>1164.0</ele><time>2026-05-02T12:36:36.204Z</time></trkpt><trkpt lat="43.1919665" lon="12.8289419"><ele>1167.5</ele><time>2026-05-02T12:36:38.205Z</time></trkpt><trkpt lat="43.1920112" lon="12.8290721"><ele>1171.0</ele><time>2026-05-02T12:36:40.205Z</time></trkpt><trkpt lat="43.192056" lon="12.8291858"><ele>1171.0</ele><time>2026-05-02T12:36:42.205Z</time></trkpt><trkpt lat="43.1921298" lon="12.8292723"><ele>1171.0</ele><time>2026-05-02T12:36:44.205Z</time></trkpt><trkpt lat="43.1922169" lon="12.829292"><ele>1171.0</ele><time>2026-05-02T12:36:46.205Z</time></trkpt><trkpt lat="43.1923143" lon="12.8292742"><ele>1171.0</ele><time>2026-05-02T12:36:48.205Z</time></trkpt><trkpt lat="43.1924418" lon="12.8292613"><ele>1171.0</ele><time>2026-05-02T12:36:50.205Z</time></trkpt><trkpt lat="43.1925589" lon="12.8292852"><ele>1173.142857142857</ele><time>2026-05-02T12:36:52.205Z</time></trkpt><trkpt lat="43.1926248" lon="12.8292994"><ele>1175.2857142857142</ele><time>2026-05-02T12:36:53.205Z</time></trkpt><trkpt lat="43.1926875" lon="12.8293138"><ele>1177.4285714285713</ele><time>2026-05-02T12:36:54.205Z</time></trkpt><trkpt lat="43.1927545" lon="12.8293333"><ele>1179.5714285714284</ele><time>2026-05-02T12:36:55.205Z</time></trkpt><trkpt lat="43.1928194" lon="12.8293568"><ele>1181.7142857142858</ele><time>2026-05-02T12:36:56.205Z</time></trkpt><trkpt lat="43.1928874" lon="12.8293826"><ele>1183.8571428571427</ele><time>2026-05-02T12:36:57.205Z</time></trkpt><trkpt lat="43.1929552" lon="12.8294085"><ele>1186.0</ele><time>2026-05-02T12:36:58.205Z</time></trkpt><trkpt lat="43.193028" lon="12.8294338"><ele>1186.3999999999999</ele><time>2026-05-02T12:36:59.204Z</time></trkpt><trkpt lat="43.1931075" lon="12.8294704"><ele>1186.8</ele><time>2026-05-02T12:37:00.205Z</time></trkpt><trkpt lat="43.1931898" lon="12.8295084"><ele>1187.1999999999998</ele><time>2026-05-02T12:37:01.205Z</time></trkpt><trkpt lat="43.1932743" lon="12.8295459"><ele>1187.6</ele><time>2026-05-02T12:37:02.204Z</time></trkpt><trkpt lat="43.1933631" lon="12.8295867"><ele>1188.0</ele><time>2026-05-02T12:37:03.205Z</time></trkpt><trkpt lat="43.1934563" lon="12.829627"><ele>1191.3333333333333</ele><time>2026-05-02T12:37:04.205Z</time></trkpt><trkpt lat="43.1935511" lon="12.8296656"><ele>1194.6666666666667</ele><time>2026-05-02T12:37:05.205Z</time></trkpt><trkpt lat="43.1936355" lon="12.8297001"><ele>1198.0</ele><time>2026-05-02T12:37:06.205Z</time></trkpt><trkpt lat="43.1937191" lon="12.8297399"><ele>1201.3333333333335</ele><time>2026-05-02T12:37:07.204Z</time></trkpt><trkpt lat="43.1937966" lon="12.8297702"><ele>1204.6666666666667</ele><time>2026-05-02T12:37:08.204Z</time></trkpt><trkpt lat="43.1938651" lon="12.8297963"><ele>1208.0</ele><time>2026-05-02T12:37:09.205Z</time></trkpt><trkpt lat="43.1939356" lon="12.8298292"><ele>1209.5</ele><time>2026-05-02T12:37:10.205Z</time></trkpt><trkpt lat="43.1940087" lon="12.82987"><ele>1211.0</ele><time>2026-05-02T12:37:11.205Z</time></trkpt><trkpt lat="43.1940651" lon="12.8299109"><ele>1212.5</ele><time>2026-05-02T12:37:12.204Z</time></trkpt><trkpt lat="43.1941259" lon="12.8299714"><ele>1214.0</ele><time>2026-05-02T12:37:14.204Z</time></trkpt><trkpt lat="43.1941903" lon="12.8300538"><ele>1215.5</ele><time>2026-05-02T12:40:34.204Z</time></trkpt><trkpt lat="43.1942499" lon="12.8301559"><ele>1217.0</ele><time>2026-05-02T12:40:36.204Z</time></trkpt><trkpt lat="43.1943119" lon="12.8302806"><ele>1217.8</ele><time>2026-05-02T12:40:38.205Z</time></trkpt><trkpt lat="43.1943613" lon="12.8304195"><ele>1218.6</ele><time>2026-05-02T12:40:40.204Z</time></trkpt><trkpt lat="43.1943946" lon="12.8305488"><ele>1219.3999999999999</ele><time>2026-05-02T12:40:42.204Z</time></trkpt><trkpt lat="43.1944528" lon="12.8306664"><ele>1220.2</ele><time>2026-05-02T12:40:44.204Z</time></trkpt><trkpt lat="43.194551" lon="12.8307583"><ele>1221.0</ele><time>2026-05-02T12:40:46.204Z</time></trkpt><trkpt lat="43.1946175" lon="12.8307944"><ele>1221.0</ele><time>2026-05-02T12:40:47.204Z</time></trkpt><trkpt lat="43.1946882" lon="12.8308194"><ele>1221.0</ele><time>2026-05-02T12:40:48.204Z</time></trkpt><trkpt lat="43.1947639" lon="12.830839"><ele>1221.0</ele><time>2026-05-02T12:40:49.203Z</time></trkpt><trkpt lat="43.1948399" lon="12.8308546"><ele>1221.0</ele><time>2026-05-02T12:40:50.204Z</time></trkpt><trkpt lat="43.1949108" lon="12.830868"><ele>1221.0</ele><time>2026-05-02T12:40:51.203Z</time></trkpt><trkpt lat="43.1949883" lon="12.8308799"><ele>1221.0</ele><time>2026-05-02T12:40:52.204Z</time></trkpt><trkpt lat="43.1950698" lon="12.8308956"><ele>1222.3333333333333</ele><time>2026-05-02T12:40:53.204Z</time></trkpt><trkpt lat="43.1951548" lon="12.8309146"><ele>1223.6666666666667</ele><time>2026-05-02T12:40:54.204Z</time></trkpt><trkpt lat="43.195242" lon="12.8309286"><ele>1225.0</ele><time>2026-05-02T12:40:55.204Z</time></trkpt><trkpt lat="43.1953236" lon="12.8309381"><ele>1226.3333333333335</ele><time>2026-05-02T12:40:56.203Z</time></trkpt><trkpt lat="43.1954067" lon="12.8309412"><ele>1227.6666666666667</ele><time>2026-05-02T12:40:57.204Z</time></trkpt><trkpt lat="43.1954838" lon="12.83094"><ele>1229.0</ele><time>2026-05-02T12:40:58.204Z</time></trkpt><trkpt lat="43.1955502" lon="12.8309375"><ele>1231.3333333333335</ele><time>2026-05-02T12:40:59.204Z</time></trkpt><trkpt lat="43.1956714" lon="12.8309329"><ele>1233.6666666666667</ele><time>2026-05-02T12:41:01.204Z</time></trkpt><trkpt lat="43.1957427" lon="12.8309352"><ele>1236.0</ele><time>2026-05-02T12:41:02.204Z</time></trkpt><trkpt lat="43.1958189" lon="12.8309411"><ele>1238.3333333333333</ele><time>2026-05-02T12:41:03.203Z</time></trkpt><trkpt lat="43.1958992" lon="12.8309483"><ele>1240.6666666666665</ele><time>2026-05-02T12:41:04.204Z</time></trkpt><trkpt lat="43.195977" lon="12.8309558"><ele>1243.0</ele><time>2026-05-02T12:41:05.204Z</time></trkpt><trkpt lat="43.1960578" lon="12.8309623"><ele>1243.0</ele><time>2026-05-02T12:41:06.204Z</time></trkpt><trkpt lat="43.1961371" lon="12.8309677"><ele>1243.0</ele><time>2026-05-02T12:41:07.204Z</time></trkpt><trkpt lat="43.1962148" lon="12.8309741"><ele>1243.0</ele><time>2026-05-02T12:41:08.204Z</time></trkpt><trkpt lat="43.1962943" lon="12.8309838"><ele>1243.0</ele><time>2026-05-02T12:41:09.204Z</time></trkpt><trkpt lat="43.1963761" lon="12.8309987"><ele>1243.0</ele><time>2026-05-02T12:41:10.203Z</time></trkpt><trkpt lat="43.1964534" lon="12.8310182"><ele>1243.0</ele><time>2026-05-02T12:41:11.204Z</time></trkpt><trkpt lat="43.1965182" lon="12.8310386"><ele>1244.8333333333333</ele><time>2026-05-02T12:41:12.203Z</time></trkpt><trkpt lat="43.1965881" lon="12.831069"><ele>1246.6666666666665</ele><time>2026-05-02T12:41:13.204Z</time></trkpt><trkpt lat="43.1967017" lon="12.8311238"><ele>1248.5</ele><time>2026-05-02T12:41:15.204Z</time></trkpt><trkpt lat="43.1967633" lon="12.8311462"><ele>1250.3333333333333</ele><time>2026-05-02T12:41:16.203Z</time></trkpt><trkpt lat="43.1968307" lon="12.831169"><ele>1252.1666666666667</ele><time>2026-05-02T12:41:17.204Z</time></trkpt><trkpt lat="43.1968982" lon="12.8311887"><ele>1254.0</ele><time>2026-05-02T12:41:18.204Z</time></trkpt><trkpt lat="43.1969671" lon="12.8312113"><ele>1254.0</ele><time>2026-05-02T12:41:19.203Z</time></trkpt><trkpt lat="43.1970341" lon="12.8312336"><ele>1254.0</ele><time>2026-05-02T12:41:20.204Z</time></trkpt><trkpt lat="43.1971037" lon="12.8312512"><ele>1254.0</ele><time>2026-05-02T12:41:21.203Z</time></trkpt><trkpt lat="43.1971779" lon="12.8312647"><ele>1254.0</ele><time>2026-05-02T12:41:22.204Z</time></trkpt><trkpt lat="43.1972514" lon="12.8312748"><ele>1254.0</ele><time>2026-05-02T12:41:23.203Z</time></trkpt><trkpt lat="43.197328" lon="12.831282"><ele>1254.0</ele><time>2026-05-02T12:41:24.204Z</time></trkpt><trkpt lat="43.1974044" lon="12.8312834"><ele>1254.0</ele><time>2026-05-02T12:41:25.204Z</time></trkpt><trkpt lat="43.1974813" lon="12.831278"><ele>1255.8333333333333</ele><time>2026-05-02T12:41:26.204Z</time></trkpt><trkpt lat="43.1975551" lon="12.8312688"><ele>1257.6666666666667</ele><time>2026-05-02T12:41:27.204Z</time></trkpt><trkpt lat="43.1976769" lon="12.8312524"><ele>1259.5</ele><time>2026-05-02T12:41:29.204Z</time></trkpt><trkpt lat="43.1977452" lon="12.8312461"><ele>1261.3333333333335</ele><time>2026-05-02T12:41:30.204Z</time></trkpt><trkpt lat="43.1978124" lon="12.8312402"><ele>1263.1666666666667</ele><time>2026-05-02T12:41:31.204Z</time></trkpt><trkpt lat="43.1978825" lon="12.8312207"><ele>1265.0</ele><time>2026-05-02T12:41:32.204Z</time></trkpt><trkpt lat="43.1979524" lon="12.8311899"><ele>1265.0</ele><time>2026-05-02T12:41:33.204Z</time></trkpt><trkpt lat="43.1980219" lon="12.8311486"><ele>1265.0</ele><time>2026-05-02T12:41:34.203Z</time></trkpt><trkpt lat="43.19809" lon="12.8310972"><ele>1265.0</ele><time>2026-05-02T12:41:35.204Z</time></trkpt><trkpt lat="43.1981591" lon="12.8310394"><ele>1265.0</ele><time>2026-05-02T12:41:36.204Z</time></trkpt><trkpt lat="43.1982297" lon="12.8309804"><ele>1265.0</ele><time>2026-05-02T12:41:37.204Z</time></trkpt><trkpt lat="43.1983022" lon="12.8309189"><ele>1265.0</ele><time>2026-05-02T12:41:38.203Z</time></trkpt><trkpt lat="43.1983758" lon="12.8308613"><ele>1266.857142857143</ele><time>2026-05-02T12:41:39.204Z</time></trkpt><trkpt lat="43.1984505" lon="12.8308077"><ele>1268.7142857142858</ele><time>2026-05-02T12:41:40.203Z</time></trkpt><trkpt lat="43.1985202" lon="12.8307659"><ele>1270.5714285714287</ele><time>2026-05-02T12:41:41.204Z</time></trkpt><trkpt lat="43.1985862" lon="12.830733"><ele>1272.4285714285716</ele><time>2026-05-02T12:41:42.204Z</time></trkpt><trkpt lat="43.1986506" lon="12.8307082"><ele>1274.2857142857142</ele><time>2026-05-02T12:41:43.203Z</time></trkpt><trkpt lat="43.1987139" lon="12.8306785"><ele>1276.1428571428573</ele><time>2026-05-02T12:41:44.204Z</time></trkpt><trkpt lat="43.1987806" lon="12.8306431"><ele>1278.0</ele><time>2026-05-02T12:41:45.203Z</time></trkpt><trkpt lat="43.1988466" lon="12.830602"><ele>1278.0</ele><time>2026-05-02T12:41:46.204Z</time></trkpt><trkpt lat="43.1989077" lon="12.8305539"><ele>1278.0</ele><time>2026-05-02T12:41:47.204Z</time></trkpt><trkpt lat="43.1989581" lon="12.8304989"><ele>1278.0</ele><time>2026-05-02T12:41:48.204Z</time></trkpt><trkpt lat="43.1990287" lon="12.8303839"><ele>1278.0</ele><time>2026-05-02T12:41:50.204Z</time></trkpt><trkpt lat="43.1990599" lon="12.8302284"><ele>1278.0</ele><time>2026-05-02T12:41:52.204Z</time></trkpt><trkpt lat="43.1990455" lon="12.8300893"><ele>1278.5</ele><time>2026-05-02T12:41:54.204Z</time></trkpt><trkpt lat="43.1990124" lon="12.8300066"><ele>1279.0</ele><time>2026-05-02T12:41:56.204Z</time></trkpt><trkpt lat="43.1989446" lon="12.8299781"><ele>1279.5</ele><time>2026-05-02T12:42:00.204Z</time></trkpt><trkpt lat="43.1989607" lon="12.830079"><ele>1280.0</ele><time>2026-05-02T12:48:39.204Z</time></trkpt><trkpt lat="43.1990491" lon="12.83012"><ele>1280.5</ele><time>2026-05-02T12:48:42.203Z</time></trkpt><trkpt lat="43.1991536" lon="12.8301201"><ele>1281.0</ele><time>2026-05-02T12:48:44.203Z</time></trkpt><trkpt lat="43.1992174" lon="12.8301109"><ele>1283.1666666666667</ele><time>2026-05-02T12:48:45.203Z</time></trkpt><trkpt lat="43.1992815" lon="12.830105"><ele>1285.3333333333333</ele><time>2026-05-02T12:48:46.204Z</time></trkpt><trkpt lat="43.199348" lon="12.8300962"><ele>1287.5</ele><time>2026-05-02T12:48:47.204Z</time></trkpt><trkpt lat="43.1994685" lon="12.8300732"><ele>1289.6666666666665</ele><time>2026-05-02T12:48:49.204Z</time></trkpt><trkpt lat="43.199531" lon="12.8300475"><ele>1291.8333333333333</ele><time>2026-05-02T12:48:50.204Z</time></trkpt><trkpt lat="43.1995963" lon="12.8300146"><ele>1294.0</ele><time>2026-05-02T12:48:51.204Z</time></trkpt><trkpt lat="43.1996618" lon="12.8299683"><ele>1294.0</ele><time>2026-05-02T12:48:52.204Z</time></trkpt><trkpt lat="43.1997209" lon="12.829922"><ele>1294.0</ele><time>2026-05-02T12:48:53.204Z</time></trkpt><trkpt lat="43.1997894" lon="12.8298723"><ele>1294.0</ele><time>2026-05-02T12:48:54.204Z</time></trkpt><trkpt lat="43.1998661" lon="12.8298232"><ele>1294.0</ele><time>2026-05-02T12:48:55.204Z</time></trkpt><trkpt lat="43.1999405" lon="12.8297788"><ele>1294.0</ele><time>2026-05-02T12:48:56.204Z</time></trkpt><trkpt lat="43.2000215" lon="12.8297341"><ele>1294.0</ele><time>2026-05-02T12:48:57.204Z</time></trkpt><trkpt lat="43.2001019" lon="12.8296939"><ele>1293.3333333333333</ele><time>2026-05-02T12:48:58.204Z</time></trkpt><trkpt lat="43.2001843" lon="12.8296545"><ele>1292.6666666666665</ele><time>2026-05-02T12:48:59.203Z</time></trkpt><trkpt lat="43.2002604" lon="12.8296194"><ele>1292.0</ele><time>2026-05-02T12:49:00.204Z</time></trkpt><trkpt lat="43.2003471" lon="12.8295794"><ele>1291.3333333333333</ele><time>2026-05-02T12:49:01.203Z</time></trkpt><trkpt lat="43.200439" lon="12.8295371"><ele>1290.6666666666667</ele><time>2026-05-02T12:49:02.204Z</time></trkpt><trkpt lat="43.2005261" lon="12.8294926"><ele>1290.0</ele><time>2026-05-02T12:49:03.204Z</time></trkpt><trkpt lat="43.2006213" lon="12.8294416"><ele>1288.6</ele><time>2026-05-02T12:49:04.203Z</time></trkpt><trkpt lat="43.2007124" lon="12.8293915"><ele>1287.2</ele><time>2026-05-02T12:49:05.205Z</time></trkpt><trkpt lat="43.2008004" lon="12.8293406"><ele>1285.8000000000002</ele><time>2026-05-02T12:49:06.204Z</time></trkpt><trkpt lat="43.2008916" lon="12.8292879"><ele>1284.4</ele><time>2026-05-02T12:49:07.204Z</time></trkpt><trkpt lat="43.2009826" lon="12.8292359"><ele>1283.0</ele><time>2026-05-02T12:49:08.205Z</time></trkpt><trkpt lat="43.201067" lon="12.8291862"><ele>1283.0</ele><time>2026-05-02T12:49:09.203Z</time></trkpt><trkpt lat="43.2011536" lon="12.8291362"><ele>1283.0</ele><time>2026-05-02T12:49:10.204Z</time></trkpt><trkpt lat="43.2012384" lon="12.8290852"><ele>1283.0</ele><time>2026-05-02T12:49:11.204Z</time></trkpt><trkpt lat="43.2013249" lon="12.8290302"><ele>1283.0</ele><time>2026-05-02T12:49:12.204Z</time></trkpt><trkpt lat="43.201417" lon="12.8289702"><ele>1283.0</ele><time>2026-05-02T12:49:13.203Z</time></trkpt><trkpt lat="43.2015149" lon="12.8289062"><ele>1283.25</ele><time>2026-05-02T12:49:14.204Z</time></trkpt><trkpt lat="43.2016184" lon="12.8288426"><ele>1283.5</ele><time>2026-05-02T12:49:15.204Z</time></trkpt><trkpt lat="43.2017256" lon="12.828778"><ele>1283.75</ele><time>2026-05-02T12:49:16.204Z</time></trkpt><trkpt lat="43.201835" lon="12.8287154"><ele>1284.0</ele><time>2026-05-02T12:49:17.204Z</time></trkpt><trkpt lat="43.2019453" lon="12.8286582"><ele>1284.0</ele><time>2026-05-02T12:49:18.204Z</time></trkpt><trkpt lat="43.2020573" lon="12.8286125"><ele>1284.0</ele><time>2026-05-02T12:49:19.204Z</time></trkpt><trkpt lat="43.2021726" lon="12.8285773"><ele>1284.0</ele><time>2026-05-02T12:49:20.204Z</time></trkpt><trkpt lat="43.202287" lon="12.8285499"><ele>1284.0</ele><time>2026-05-02T12:49:21.204Z</time></trkpt><trkpt lat="43.2023982" lon="12.8285286"><ele>1285.6</ele><time>2026-05-02T12:49:22.204Z</time></trkpt><trkpt lat="43.2025007" lon="12.8285126"><ele>1287.2</ele><time>2026-05-02T12:49:23.205Z</time></trkpt><trkpt lat="43.202583" lon="12.8285009"><ele>1288.8</ele><time>2026-05-02T12:49:24.204Z</time></trkpt><trkpt lat="43.2026548" lon="12.8284919"><ele>1290.3999999999999</ele><time>2026-05-02T12:49:25.204Z</time></trkpt><trkpt lat="43.2027291" lon="12.8284822"><ele>1292.0</ele><time>2026-05-02T12:49:26.204Z</time></trkpt><trkpt lat="43.2028467" lon="12.8284513"><ele>1295.0</ele><time>2026-05-02T12:49:28.204Z</time></trkpt><trkpt lat="43.202965" lon="12.8284229"><ele>1298.0</ele><time>2026-05-02T12:49:30.204Z</time></trkpt><trkpt lat="43.2030804" lon="12.828395"><ele>1301.0</ele><time>2026-05-02T12:49:32.204Z</time></trkpt><trkpt lat="43.2031894" lon="12.8283617"><ele>1304.0</ele><time>2026-05-02T12:49:34.203Z</time></trkpt><trkpt lat="43.2033015" lon="12.8283265"><ele>1307.1666666666667</ele><time>2026-05-02T12:49:36.203Z</time></trkpt><trkpt lat="43.2034162" lon="12.8282882"><ele>1310.3333333333335</ele><time>2026-05-02T12:49:38.204Z</time></trkpt><trkpt lat="43.203517" lon="12.8282536"><ele>1313.5</ele><time>2026-05-02T12:49:40.204Z</time></trkpt><trkpt lat="43.2035819" lon="12.828208"><ele>1316.6666666666667</ele><time>2026-05-02T12:49:42.204Z</time></trkpt><trkpt lat="43.2035315" lon="12.8281401"><ele>1319.8333333333333</ele><time>2026-05-02T12:52:05.204Z</time></trkpt><trkpt lat="43.2034966" lon="12.8280537"><ele>1323.0</ele><time>2026-05-02T12:52:10.204Z</time></trkpt><trkpt lat="43.2035519" lon="12.82798"><ele>1323.0</ele><time>2026-05-02T12:52:14.204Z</time></trkpt><trkpt lat="43.2036268" lon="12.8279346"><ele>1323.0</ele><time>2026-05-02T12:52:16.204Z</time></trkpt><trkpt lat="43.2037258" lon="12.8279461"><ele>1323.0</ele><time>2026-05-02T12:52:18.203Z</time></trkpt><trkpt lat="43.2038539" lon="12.8279612"><ele>1323.0</ele><time>2026-05-02T12:52:20.203Z</time></trkpt><trkpt lat="43.2039294" lon="12.8279753"><ele>1323.0</ele><time>2026-05-02T12:52:21.203Z</time></trkpt><trkpt lat="43.2040072" lon="12.8279883"><ele>1326.3333333333333</ele><time>2026-05-02T12:52:22.204Z</time></trkpt><trkpt lat="43.2040763" lon="12.8279952"><ele>1329.6666666666667</ele><time>2026-05-02T12:52:23.204Z</time></trkpt><trkpt lat="43.2041568" lon="12.8280048"><ele>1333.0</ele><time>2026-05-02T12:52:24.204Z</time></trkpt><trkpt lat="43.2042405" lon="12.8280136"><ele>1336.3333333333335</ele><time>2026-05-02T12:52:25.204Z</time></trkpt><trkpt lat="43.2043276" lon="12.8280233"><ele>1339.6666666666667</ele><time>2026-05-02T12:52:26.203Z</time></trkpt><trkpt lat="43.2044191" lon="12.8280341"><ele>1343.0</ele><time>2026-05-02T12:52:27.204Z</time></trkpt><trkpt lat="43.2045098" lon="12.8280416"><ele>1343.0</ele><time>2026-05-02T12:52:28.203Z</time></trkpt><trkpt lat="43.2046027" lon="12.8280512"><ele>1343.0</ele><time>2026-05-02T12:52:29.204Z</time></trkpt><trkpt lat="43.2046931" lon="12.8280599"><ele>1343.0</ele><time>2026-05-02T12:52:30.203Z</time></trkpt><trkpt lat="43.2047849" lon="12.8280667"><ele>1343.0</ele><time>2026-05-02T12:52:31.204Z</time></trkpt><trkpt lat="43.2048806" lon="12.8280781"><ele>1343.0</ele><time>2026-05-02T12:52:32.203Z</time></trkpt><trkpt lat="43.2049747" lon="12.8280886"><ele>1347.2</ele><time>2026-05-02T12:52:33.205Z</time></trkpt><trkpt lat="43.2050789" lon="12.8281022"><ele>1351.4</ele><time>2026-05-02T12:52:34.205Z</time></trkpt><trkpt lat="43.2051868" lon="12.828113"><ele>1355.6000000000001</ele><time>2026-05-02T12:52:35.204Z</time></trkpt><trkpt lat="43.2052852" lon="12.8281275"><ele>1359.8000000000002</ele><time>2026-05-02T12:52:36.205Z</time></trkpt><trkpt lat="43.2053826" lon="12.8281473"><ele>1364.0</ele><time>2026-05-02T12:52:37.204Z</time></trkpt><trkpt lat="43.2054772" lon="12.8281643"><ele>1364.0</ele><time>2026-05-02T12:52:38.204Z</time></trkpt><trkpt lat="43.2055678" lon="12.8281782"><ele>1364.0</ele><time>2026-05-02T12:52:39.205Z</time></trkpt><trkpt lat="43.2056385" lon="12.8281868"><ele>1364.0</ele><time>2026-05-02T12:52:40.205Z</time></trkpt><trkpt lat="43.2057088" lon="12.8282004"><ele>1364.0</ele><time>2026-05-02T12:52:41.205Z</time></trkpt><trkpt lat="43.2057792" lon="12.8282145"><ele>1364.0</ele><time>2026-05-02T12:52:42.205Z</time></trkpt><trkpt lat="43.2058444" lon="12.8282334"><ele>1364.0</ele><time>2026-05-02T12:52:43.204Z</time></trkpt><trkpt lat="43.2059055" lon="12.8282607"><ele>1364.0</ele><time>2026-05-02T12:52:44.205Z</time></trkpt><trkpt lat="43.2059735" lon="12.8282987"><ele>1365.5</ele><time>2026-05-02T12:52:45.205Z</time></trkpt><trkpt lat="43.2060474" lon="12.8283413"><ele>1367.0</ele><time>2026-05-02T12:52:46.205Z</time></trkpt><trkpt lat="43.2061257" lon="12.828385"><ele>1368.5</ele><time>2026-05-02T12:52:47.205Z</time></trkpt><trkpt lat="43.2062089" lon="12.8284281"><ele>1370.0</ele><time>2026-05-02T12:52:48.204Z</time></trkpt><trkpt lat="43.2062957" lon="12.8284697"><ele>1371.5</ele><time>2026-05-02T12:52:49.205Z</time></trkpt><trkpt lat="43.206379" lon="12.8285102"><ele>1373.0</ele><time>2026-05-02T12:52:50.205Z</time></trkpt><trkpt lat="43.206471" lon="12.8285628"><ele>1374.8000000000002</ele><time>2026-05-02T12:52:51.205Z</time></trkpt><trkpt lat="43.2065631" lon="12.8286152"><ele>1376.6</ele><time>2026-05-02T12:52:52.205Z</time></trkpt><trkpt lat="43.2066591" lon="12.8286648"><ele>1378.4</ele><time>2026-05-02T12:52:53.205Z</time></trkpt><trkpt lat="43.2067533" lon="12.8287135"><ele>1380.1999999999998</ele><time>2026-05-02T12:52:54.205Z</time></trkpt><trkpt lat="43.2068475" lon="12.8287646"><ele>1382.0</ele><time>2026-05-02T12:52:55.205Z</time></trkpt><trkpt lat="43.2069426" lon="12.8288206"><ele>1382.0</ele><time>2026-05-02T12:52:56.205Z</time></trkpt><trkpt lat="43.2070391" lon="12.8288739"><ele>1382.0</ele><time>2026-05-02T12:52:57.204Z</time></trkpt><trkpt lat="43.2071358" lon="12.8289223"><ele>1382.0</ele><time>2026-05-02T12:52:58.205Z</time></trkpt><trkpt lat="43.2072313" lon="12.828969"><ele>1382.0</ele><time>2026-05-02T12:52:59.205Z</time></trkpt><trkpt lat="43.2073243" lon="12.8290148"><ele>1382.0</ele><time>2026-05-02T12:53:00.205Z</time></trkpt><trkpt lat="43.2074166" lon="12.829059"><ele>1383.6</ele><time>2026-05-02T12:53:01.204Z</time></trkpt><trkpt lat="43.2075083" lon="12.8291054"><ele>1385.1999999999998</ele><time>2026-05-02T12:53:02.204Z</time></trkpt><trkpt lat="43.2076024" lon="12.8291509"><ele>1386.8</ele><time>2026-05-02T12:53:03.205Z</time></trkpt><trkpt lat="43.2076984" lon="12.8291955"><ele>1388.4</ele><time>2026-05-02T12:53:04.205Z</time></trkpt><trkpt lat="43.207795" lon="12.8292426"><ele>1390.0</ele><time>2026-05-02T12:53:05.205Z</time></trkpt><trkpt lat="43.2078927" lon="12.829294"><ele>1390.6</ele><time>2026-05-02T12:53:06.205Z</time></trkpt><trkpt lat="43.207982" lon="12.8293499"><ele>1391.2</ele><time>2026-05-02T12:53:07.205Z</time></trkpt><trkpt lat="43.2080629" lon="12.8294078"><ele>1391.8000000000002</ele><time>2026-05-02T12:53:08.204Z</time></trkpt><trkpt lat="43.2081412" lon="12.8294647"><ele>1392.4</ele><time>2026-05-02T12:53:09.204Z</time></trkpt><trkpt lat="43.2082213" lon="12.829518"><ele>1393.0</ele><time>2026-05-02T12:53:10.205Z</time></trkpt><trkpt lat="43.2083046" lon="12.8295676"><ele>1393.0</ele><time>2026-05-02T12:53:11.205Z</time></trkpt><trkpt lat="43.2083873" lon="12.8296152"><ele>1393.0</ele><time>2026-05-02T12:53:12.205Z</time></trkpt><trkpt lat="43.2084607" lon="12.8296555"><ele>1393.0</ele><time>2026-05-02T12:53:13.205Z</time></trkpt><trkpt lat="43.2085322" lon="12.8296894"><ele>1393.0</ele><time>2026-05-02T12:53:14.205Z</time></trkpt><trkpt lat="43.2086031" lon="12.8297209"><ele>1393.0</ele><time>2026-05-02T12:53:15.205Z</time></trkpt><trkpt lat="43.2086762" lon="12.8297465"><ele>1393.0</ele><time>2026-05-02T12:53:16.205Z</time></trkpt><trkpt lat="43.2087408" lon="12.8297605"><ele>1393.0</ele><time>2026-05-02T12:53:17.205Z</time></trkpt><trkpt lat="43.2088083" lon="12.8297682"><ele>1393.0</ele><time>2026-05-02T12:53:18.205Z</time></trkpt><trkpt lat="43.2089125" lon="12.8297792"><ele>1393.0</ele><time>2026-05-02T12:53:20.205Z</time></trkpt><trkpt lat="43.2089788" lon="12.8297739"><ele>1393.0</ele><time>2026-05-02T12:53:22.205Z</time></trkpt><trkpt lat="43.2090586" lon="12.8297719"><ele>1393.0</ele><time>2026-05-02T12:53:24.205Z</time></trkpt><trkpt lat="43.2091689" lon="12.829765"><ele>1393.0</ele><time>2026-05-02T12:53:26.204Z</time></trkpt><trkpt lat="43.2092783" lon="12.8297262"><ele>1393.5</ele><time>2026-05-02T12:53:28.205Z</time></trkpt><trkpt lat="43.209385" lon="12.829665"><ele>1394.0</ele><time>2026-05-02T12:53:30.205Z</time></trkpt><trkpt lat="43.2094811" lon="12.829585"><ele>1394.5</ele><time>2026-05-02T12:53:32.206Z</time></trkpt><trkpt lat="43.2095357" lon="12.8295357"><ele>1395.0</ele><time>2026-05-02T12:53:33.205Z</time></trkpt><trkpt lat="43.2095919" lon="12.8294845"><ele>1395.5</ele><time>2026-05-02T12:53:34.204Z</time></trkpt><trkpt lat="43.2096474" lon="12.8294291"><ele>1396.0</ele><time>2026-05-02T12:53:35.205Z</time></trkpt><trkpt lat="43.2097026" lon="12.8293735"><ele>1396.5</ele><time>2026-05-02T12:53:36.205Z</time></trkpt><trkpt lat="43.209804" lon="12.8292633"><ele>1397.0</ele><time>2026-05-02T12:53:38.204Z</time></trkpt><trkpt lat="43.2098601" lon="12.8292065"><ele>1397.5</ele><time>2026-05-02T12:53:39.205Z</time></trkpt><trkpt lat="43.2099191" lon="12.8291501"><ele>1398.0</ele><time>2026-05-02T12:53:40.205Z</time></trkpt><trkpt lat="43.2099842" lon="12.8290933"><ele>1398.5</ele><time>2026-05-02T12:53:41.205Z</time></trkpt><trkpt lat="43.2100532" lon="12.8290407"><ele>1399.0</ele><time>2026-05-02T12:53:42.205Z</time></trkpt><trkpt lat="43.2101265" lon="12.8289889"><ele>1399.0</ele><time>2026-05-02T12:53:43.204Z</time></trkpt><trkpt lat="43.2101994" lon="12.8289382"><ele>1399.0</ele><time>2026-05-02T12:53:44.205Z</time></trkpt><trkpt lat="43.2102707" lon="12.8288858"><ele>1399.0</ele><time>2026-05-02T12:53:45.205Z</time></trkpt><trkpt lat="43.2103461" lon="12.8288321"><ele>1399.0</ele><time>2026-05-02T12:53:46.205Z</time></trkpt><trkpt lat="43.210422" lon="12.8287862"><ele>1399.0</ele><time>2026-05-02T12:53:47.204Z</time></trkpt><trkpt lat="43.2105026" lon="12.8287467"><ele>1399.0</ele><time>2026-05-02T12:53:48.204Z</time></trkpt><trkpt lat="43.2105875" lon="12.8287163"><ele>1401.0</ele><time>2026-05-02T12:53:49.204Z</time></trkpt><trkpt lat="43.2106686" lon="12.8286945"><ele>1403.0</ele><time>2026-05-02T12:53:50.205Z</time></trkpt><trkpt lat="43.2107405" lon="12.8286764"><ele>1405.0</ele><time>2026-05-02T12:53:51.204Z</time></trkpt><trkpt lat="43.2108072" lon="12.8286665"><ele>1407.0</ele><time>2026-05-02T12:53:52.205Z</time></trkpt><trkpt lat="43.2108728" lon="12.8286641"><ele>1409.0</ele><time>2026-05-02T12:53:53.205Z</time></trkpt><trkpt lat="43.2109791" lon="12.8286644"><ele>1411.0</ele><time>2026-05-02T12:53:55.204Z</time></trkpt><trkpt lat="43.2110712" lon="12.828682"><ele>1411.0</ele><time>2026-05-02T12:53:57.204Z</time></trkpt><trkpt lat="43.2111442" lon="12.8287057"><ele>1411.0</ele><time>2026-05-02T12:53:59.205Z</time></trkpt><trkpt lat="43.2112187" lon="12.8287065"><ele>1411.0</ele><time>2026-05-02T12:54:02.205Z</time></trkpt><trkpt lat="43.2112606" lon="12.828599"><ele>1411.0</ele><time>2026-05-02T12:54:05.206Z</time></trkpt><trkpt lat="43.2112352" lon="12.8284707"><ele>1411.0</ele><time>2026-05-02T12:54:07.205Z</time></trkpt><trkpt lat="43.2112099" lon="12.8283347"><ele>1411.0</ele><time>2026-05-02T12:54:09.204Z</time></trkpt><trkpt lat="43.2111997" lon="12.8281648"><ele>1411.1666666666665</ele><time>2026-05-02T12:54:11.205Z</time></trkpt><trkpt lat="43.2111944" lon="12.8280635"><ele>1411.3333333333333</ele><time>2026-05-02T12:54:12.205Z</time></trkpt><trkpt lat="43.2111909" lon="12.8279526"><ele>1411.5</ele><time>2026-05-02T12:54:13.205Z</time></trkpt><trkpt lat="43.2111874" lon="12.8278324"><ele>1411.6666666666667</ele><time>2026-05-02T12:54:14.204Z</time></trkpt><trkpt lat="43.2111813" lon="12.8277081"><ele>1411.8333333333335</ele><time>2026-05-02T12:54:15.205Z</time></trkpt><trkpt lat="43.211177" lon="12.8275782"><ele>1412.0</ele><time>2026-05-02T12:54:16.205Z</time></trkpt><trkpt lat="43.2111792" lon="12.8274453"><ele>1412.3333333333335</ele><time>2026-05-02T12:54:17.205Z</time></trkpt><trkpt lat="43.2111878" lon="12.8273124"><ele>1412.6666666666667</ele><time>2026-05-02T12:54:18.204Z</time></trkpt><trkpt lat="43.2111961" lon="12.8271843"><ele>1413.0</ele><time>2026-05-02T12:54:19.204Z</time></trkpt><trkpt lat="43.2112008" lon="12.8270801"><ele>1413.3333333333333</ele><time>2026-05-02T12:54:20.205Z</time></trkpt><trkpt lat="43.2112068" lon="12.8269754"><ele>1413.6666666666665</ele><time>2026-05-02T12:54:21.205Z</time></trkpt><trkpt lat="43.2112104" lon="12.8268662"><ele>1414.0</ele><time>2026-05-02T12:54:22.205Z</time></trkpt><trkpt lat="43.2112121" lon="12.826756"><ele>1414.0</ele><time>2026-05-02T12:54:23.204Z</time></trkpt><trkpt lat="43.2112139" lon="12.8266632"><ele>1414.0</ele><time>2026-05-02T12:54:24.205Z</time></trkpt><trkpt lat="43.2112135" lon="12.8265554"><ele>1414.0</ele><time>2026-05-02T12:54:25.205Z</time></trkpt><trkpt lat="43.2112117" lon="12.8264406"><ele>1414.0</ele><time>2026-05-02T12:54:26.204Z</time></trkpt><trkpt lat="43.2112053" lon="12.8263256"><ele>1414.0</ele><time>2026-05-02T12:54:27.205Z</time></trkpt><trkpt lat="43.2111965" lon="12.8262069"><ele>1414.0</ele><time>2026-05-02T12:54:28.205Z</time></trkpt><trkpt lat="43.2111862" lon="12.8260798"><ele>1414.1666666666665</ele><time>2026-05-02T12:54:29.205Z</time></trkpt><trkpt lat="43.2111757" lon="12.8259544"><ele>1414.3333333333333</ele><time>2026-05-02T12:54:30.205Z</time></trkpt><trkpt lat="43.2111605" lon="12.8258338"><ele>1414.5</ele><time>2026-05-02T12:54:31.205Z</time></trkpt><trkpt lat="43.2111398" lon="12.825712"><ele>1414.6666666666667</ele><time>2026-05-02T12:54:32.205Z</time></trkpt><trkpt lat="43.2111183" lon="12.8255905"><ele>1414.8333333333335</ele><time>2026-05-02T12:54:33.204Z</time></trkpt><trkpt lat="43.2111024" lon="12.8254821"><ele>1415.0</ele><time>2026-05-02T12:54:34.204Z</time></trkpt><trkpt lat="43.2110931" lon="12.8253809"><ele>1415.0</ele><time>2026-05-02T12:54:35.205Z</time></trkpt><trkpt lat="43.2110805" lon="12.8252746"><ele>1415.0</ele><time>2026-05-02T12:54:36.205Z</time></trkpt><trkpt lat="43.2110639" lon="12.8251565"><ele>1415.0</ele><time>2026-05-02T12:54:37.205Z</time></trkpt><trkpt lat="43.2110483" lon="12.8250265"><ele>1415.0</ele><time>2026-05-02T12:54:38.205Z</time></trkpt><trkpt lat="43.2110389" lon="12.8249002"><ele>1415.0</ele><time>2026-05-02T12:54:39.204Z</time></trkpt><trkpt lat="43.2110386" lon="12.8247796"><ele>1415.0</ele><time>2026-05-02T12:54:40.204Z</time></trkpt><trkpt lat="43.2110412" lon="12.8246481"><ele>1414.142857142857</ele><time>2026-05-02T12:54:41.205Z</time></trkpt><trkpt lat="43.2110432" lon="12.824532"><ele>1413.2857142857142</ele><time>2026-05-02T12:54:42.205Z</time></trkpt><trkpt lat="43.211042" lon="12.824424"><ele>1412.4285714285716</ele><time>2026-05-02T12:54:43.204Z</time></trkpt><trkpt lat="43.2110381" lon="12.8243277"><ele>1411.5714285714284</ele><time>2026-05-02T12:54:44.205Z</time></trkpt><trkpt lat="43.211031" lon="12.8242418"><ele>1410.7142857142856</ele><time>2026-05-02T12:54:45.205Z</time></trkpt><trkpt lat="43.2110224" lon="12.824147"><ele>1409.857142857143</ele><time>2026-05-02T12:54:46.204Z</time></trkpt><trkpt lat="43.2110118" lon="12.8240406"><ele>1409.0</ele><time>2026-05-02T12:54:47.205Z</time></trkpt><trkpt lat="43.2109967" lon="12.8239235"><ele>1407.8000000000002</ele><time>2026-05-02T12:54:48.205Z</time></trkpt><trkpt lat="43.2109784" lon="12.8238011"><ele>1406.6000000000001</ele><time>2026-05-02T12:54:49.205Z</time></trkpt><trkpt lat="43.2109627" lon="12.8236681"><ele>1405.4</ele><time>2026-05-02T12:54:50.205Z</time></trkpt><trkpt lat="43.2109479" lon="12.8235326"><ele>1404.2</ele><time>2026-05-02T12:54:51.205Z</time></trkpt><trkpt lat="43.2109251" lon="12.8233922"><ele>1403.0</ele><time>2026-05-02T12:54:52.205Z</time></trkpt><trkpt lat="43.2108948" lon="12.8232592"><ele>1403.4</ele><time>2026-05-02T12:54:53.204Z</time></trkpt><trkpt lat="43.2108668" lon="12.8231349"><ele>1403.8000000000002</ele><time>2026-05-02T12:54:54.205Z</time></trkpt><trkpt lat="43.2108487" lon="12.8230112"><ele>1404.2</ele><time>2026-05-02T12:54:55.205Z</time></trkpt><trkpt lat="43.2108331" lon="12.8228769"><ele>1404.6</ele><time>2026-05-02T12:54:56.205Z</time></trkpt><trkpt lat="43.2108201" lon="12.8227323"><ele>1405.0</ele><time>2026-05-02T12:54:57.206Z</time></trkpt><trkpt lat="43.2108107" lon="12.8225808"><ele>1405.0</ele><time>2026-05-02T12:54:58.205Z</time></trkpt><trkpt lat="43.2108047" lon="12.8224248"><ele>1405.0</ele><time>2026-05-02T12:54:59.204Z</time></trkpt><trkpt lat="43.2107959" lon="12.8222786"><ele>1405.0</ele><time>2026-05-02T12:55:00.205Z</time></trkpt><trkpt lat="43.2107815" lon="12.8221393"><ele>1405.0</ele><time>2026-05-02T12:55:01.204Z</time></trkpt><trkpt lat="43.2107588" lon="12.8220101"><ele>1405.0</ele><time>2026-05-02T12:55:02.205Z</time></trkpt><trkpt lat="43.210736" lon="12.8218916"><ele>1406.1666666666665</ele><time>2026-05-02T12:55:03.205Z</time></trkpt><trkpt lat="43.2107166" lon="12.8217866"><ele>1407.3333333333333</ele><time>2026-05-02T12:55:04.205Z</time></trkpt><trkpt lat="43.2107023" lon="12.8216492"><ele>1408.5</ele><time>2026-05-02T12:55:06.205Z</time></trkpt><trkpt lat="43.210726" lon="12.821559"><ele>1409.6666666666667</ele><time>2026-05-02T12:55:08.204Z</time></trkpt><trkpt lat="43.2107802" lon="12.821498"><ele>1410.8333333333335</ele><time>2026-05-02T12:55:10.205Z</time></trkpt><trkpt lat="43.2108638" lon="12.8214822"><ele>1412.0</ele><time>2026-05-02T12:55:12.205Z</time></trkpt><trkpt lat="43.2109762" lon="12.8215212"><ele>1412.0</ele><time>2026-05-02T12:55:14.204Z</time></trkpt><trkpt lat="43.2110401" lon="12.8215584"><ele>1412.0</ele><time>2026-05-02T12:55:15.206Z</time></trkpt><trkpt lat="43.2111064" lon="12.8215988"><ele>1412.0</ele><time>2026-05-02T12:55:16.205Z</time></trkpt><trkpt lat="43.2111698" lon="12.8216351"><ele>1412.0</ele><time>2026-05-02T12:55:17.205Z</time></trkpt><trkpt lat="43.2112342" lon="12.8216613"><ele>1412.0</ele><time>2026-05-02T12:55:18.204Z</time></trkpt><trkpt lat="43.2113492" lon="12.8216873"><ele>1412.0</ele><time>2026-05-02T12:55:20.205Z</time></trkpt><trkpt lat="43.2114183" lon="12.8216789"><ele>1412.0</ele><time>2026-05-02T12:55:39.205Z</time></trkpt><trkpt lat="43.2114321" lon="12.821586"><ele>1412.0</ele><time>2026-05-02T12:55:42.205Z</time></trkpt><trkpt lat="43.2113699" lon="12.821515"><ele>1412.0</ele><time>2026-05-02T12:55:45.205Z</time></trkpt><trkpt lat="43.2112805" lon="12.821486"><ele>1412.0</ele><time>2026-05-02T12:55:48.205Z</time></trkpt><trkpt lat="43.2112015" lon="12.8214653"><ele>1412.0</ele><time>2026-05-02T12:55:50.205Z</time></trkpt><trkpt lat="43.2111284" lon="12.8214257"><ele>1412.0</ele><time>2026-05-02T12:55:52.204Z</time></trkpt><trkpt lat="43.2110416" lon="12.8213663"><ele>1412.0</ele><time>2026-05-02T12:55:54.205Z</time></trkpt><trkpt lat="43.2109568" lon="12.8212976"><ele>1412.0</ele><time>2026-05-02T12:55:56.205Z</time></trkpt><trkpt lat="43.210879" lon="12.8212502"><ele>1412.0</ele><time>2026-05-02T12:55:58.205Z</time></trkpt><trkpt lat="43.2108" lon="12.8212205"><ele>1412.0</ele><time>2026-05-02T12:56:00.204Z</time></trkpt><trkpt lat="43.2107014" lon="12.8212452"><ele>1412.0</ele><time>2026-05-02T12:56:03.204Z</time></trkpt><trkpt lat="43.2106402" lon="12.8212844"><ele>1412.0</ele><time>2026-05-02T12:56:05.205Z</time></trkpt><trkpt lat="43.2105798" lon="12.8213422"><ele>1409.3333333333335</ele><time>2026-05-02T12:56:07.205Z</time></trkpt><trkpt lat="43.2105295" lon="12.8214086"><ele>1406.6666666666667</ele><time>2026-05-02T12:56:09.204Z</time></trkpt><trkpt lat="43.2104928" lon="12.8214875"><ele>1404.0</ele><time>2026-05-02T12:56:11.204Z</time></trkpt><trkpt lat="43.210476" lon="12.8216079"><ele>1401.3333333333333</ele><time>2026-05-02T12:56:14.205Z</time></trkpt><trkpt lat="43.2104829" lon="12.8217255"><ele>1398.6666666666665</ele><time>2026-05-02T12:56:17.205Z</time></trkpt><trkpt lat="43.2105318" lon="12.8217931"><ele>1396.0</ele><time>2026-05-02T12:56:29.205Z</time></trkpt><trkpt lat="43.2105942" lon="12.8217544"><ele>1398.6666666666665</ele><time>2026-05-02T12:56:31.205Z</time></trkpt><trkpt lat="43.2106675" lon="12.8216566"><ele>1401.3333333333333</ele><time>2026-05-02T12:56:33.204Z</time></trkpt><trkpt lat="43.2107374" lon="12.821545"><ele>1404.0</ele><time>2026-05-02T12:56:35.205Z</time></trkpt><trkpt lat="43.2108073" lon="12.8214703"><ele>1406.6666666666667</ele><time>2026-05-02T12:56:37.205Z</time></trkpt><trkpt lat="43.2108657" lon="12.8214133"><ele>1409.3333333333335</ele><time>2026-05-02T12:56:40.204Z</time></trkpt><trkpt lat="43.2109381" lon="12.8214451"><ele>1412.0</ele><time>2026-05-02T12:56:56.204Z</time></trkpt><trkpt lat="43.2109198" lon="12.821555"><ele>1412.0</ele><time>2026-05-02T12:56:59.205Z</time></trkpt><trkpt lat="43.2108382" lon="12.821604"><ele>1412.0</ele><time>2026-05-02T12:57:02.205Z</time></trkpt><trkpt lat="43.2107827" lon="12.8216763"><ele>1412.0</ele><time>2026-05-02T12:57:04.205Z</time></trkpt><trkpt lat="43.2107661" lon="12.8217703"><ele>1412.0</ele><time>2026-05-02T12:57:06.205Z</time></trkpt><trkpt lat="43.2107859" lon="12.8218803"><ele>1412.0</ele><time>2026-05-02T12:57:08.205Z</time></trkpt><trkpt lat="43.2108379" lon="12.8219611"><ele>1412.0</ele><time>2026-05-02T12:57:11.205Z</time></trkpt><trkpt lat="43.2108858" lon="12.8220498"><ele>1410.6</ele><time>2026-05-02T12:57:25.205Z</time></trkpt><trkpt lat="43.2109729" lon="12.8221578"><ele>1409.1999999999998</ele><time>2026-05-02T12:57:27.204Z</time></trkpt><trkpt lat="43.2110623" lon="12.8222327"><ele>1407.8</ele><time>2026-05-02T12:57:29.205Z</time></trkpt><trkpt lat="43.2111689" lon="12.8222977"><ele>1406.4</ele><time>2026-05-02T12:57:31.204Z</time></trkpt><trkpt lat="43.2112272" lon="12.822341"><ele>1405.0</ele><time>2026-05-02T12:57:32.205Z</time></trkpt><trkpt lat="43.2112878" lon="12.8223875"><ele>1405.0</ele><time>2026-05-02T12:57:33.205Z</time></trkpt><trkpt lat="43.2113843" lon="12.8224562"><ele>1405.0</ele><time>2026-05-02T12:57:35.204Z</time></trkpt><trkpt lat="43.211489" lon="12.8225278"><ele>1405.0</ele><time>2026-05-02T12:57:37.205Z</time></trkpt><trkpt lat="43.2115726" lon="12.8225938"><ele>1405.0</ele><time>2026-05-02T12:57:39.204Z</time></trkpt><trkpt lat="43.2116573" lon="12.8226645"><ele>1405.0</ele><time>2026-05-02T12:57:41.204Z</time></trkpt><trkpt lat="43.2117331" lon="12.822755"><ele>1403.1666666666665</ele><time>2026-05-02T12:57:43.205Z</time></trkpt><trkpt lat="43.2117704" lon="12.8228784"><ele>1401.3333333333333</ele><time>2026-05-02T12:57:45.205Z</time></trkpt><trkpt lat="43.2117747" lon="12.8229899"><ele>1399.5</ele><time>2026-05-02T12:57:47.204Z</time></trkpt><trkpt lat="43.2118288" lon="12.8230644"><ele>1397.6666666666667</ele><time>2026-05-02T12:57:49.205Z</time></trkpt><trkpt lat="43.2119051" lon="12.823118"><ele>1395.8333333333335</ele><time>2026-05-02T12:57:51.206Z</time></trkpt><trkpt lat="43.2119908" lon="12.8231614"><ele>1394.0</ele><time>2026-05-02T12:57:53.204Z</time></trkpt><trkpt lat="43.2120817" lon="12.8231654"><ele>1394.0</ele><time>2026-05-02T12:57:55.205Z</time></trkpt><trkpt lat="43.2121735" lon="12.8231448"><ele>1394.0</ele><time>2026-05-02T12:57:57.204Z</time></trkpt><trkpt lat="43.2122804" lon="12.8231116"><ele>1394.0</ele><time>2026-05-02T12:57:59.205Z</time></trkpt><trkpt lat="43.212346" lon="12.8230904"><ele>1394.0</ele><time>2026-05-02T12:58:00.205Z</time></trkpt><trkpt lat="43.2124129" lon="12.8230665"><ele>1394.0</ele><time>2026-05-02T12:58:01.206Z</time></trkpt><trkpt lat="43.2124808" lon="12.8230403"><ele>1394.0</ele><time>2026-05-02T12:58:02.205Z</time></trkpt><trkpt lat="43.2125608" lon="12.823006"><ele>1391.3333333333335</ele><time>2026-05-02T12:58:03.205Z</time></trkpt><trkpt lat="43.212643" lon="12.8229664"><ele>1388.6666666666667</ele><time>2026-05-02T12:58:04.205Z</time></trkpt><trkpt lat="43.212717" lon="12.8229298"><ele>1386.0</ele><time>2026-05-02T12:58:05.205Z</time></trkpt><trkpt lat="43.2127951" lon="12.8228866"><ele>1383.3333333333333</ele><time>2026-05-02T12:58:06.205Z</time></trkpt><trkpt lat="43.2128812" lon="12.8228405"><ele>1380.6666666666665</ele><time>2026-05-02T12:58:07.205Z</time></trkpt><trkpt lat="43.2129656" lon="12.8227972"><ele>1378.0</ele><time>2026-05-02T12:58:08.205Z</time></trkpt><trkpt lat="43.2130601" lon="12.822763"><ele>1378.0</ele><time>2026-05-02T12:58:09.205Z</time></trkpt><trkpt lat="43.213153" lon="12.8227343"><ele>1378.0</ele><time>2026-05-02T12:58:10.205Z</time></trkpt><trkpt lat="43.213247" lon="12.8227004"><ele>1378.0</ele><time>2026-05-02T12:58:11.205Z</time></trkpt><trkpt lat="43.2133407" lon="12.8226659"><ele>1378.0</ele><time>2026-05-02T12:58:12.204Z</time></trkpt><trkpt lat="43.2134219" lon="12.8226398"><ele>1378.0</ele><time>2026-05-02T12:58:13.205Z</time></trkpt><trkpt lat="43.2135008" lon="12.8226227"><ele>1379.6666666666665</ele><time>2026-05-02T12:58:14.204Z</time></trkpt><trkpt lat="43.213581" lon="12.8226068"><ele>1381.3333333333333</ele><time>2026-05-02T12:58:15.205Z</time></trkpt><trkpt lat="43.2136588" lon="12.8225933"><ele>1383.0</ele><time>2026-05-02T12:58:16.205Z</time></trkpt><trkpt lat="43.2137294" lon="12.8225729"><ele>1384.6666666666667</ele><time>2026-05-02T12:58:17.205Z</time></trkpt><trkpt lat="43.213802" lon="12.8225388"><ele>1386.3333333333335</ele><time>2026-05-02T12:58:18.204Z</time></trkpt><trkpt lat="43.2138758" lon="12.8224975"><ele>1388.0</ele><time>2026-05-02T12:58:19.205Z</time></trkpt><trkpt lat="43.2139495" lon="12.8224521"><ele>1385.0</ele><time>2026-05-02T12:58:20.205Z</time></trkpt><trkpt lat="43.2140254" lon="12.8224019"><ele>1382.0</ele><time>2026-05-02T12:58:21.205Z</time></trkpt><trkpt lat="43.2140991" lon="12.8223542"><ele>1379.0</ele><time>2026-05-02T12:58:22.205Z</time></trkpt><trkpt lat="43.2141773" lon="12.8222997"><ele>1376.0</ele><time>2026-05-02T12:58:23.205Z</time></trkpt><trkpt lat="43.2142483" lon="12.8222572"><ele>1373.0</ele><time>2026-05-02T12:58:24.205Z</time></trkpt><trkpt lat="43.2143191" lon="12.8222183"><ele>1370.0</ele><time>2026-05-02T12:58:25.204Z</time></trkpt><trkpt lat="43.2143915" lon="12.8221753"><ele>1370.0</ele><time>2026-05-02T12:58:26.205Z</time></trkpt><trkpt lat="43.214462" lon="12.8221335"><ele>1370.0</ele><time>2026-05-02T12:58:27.205Z</time></trkpt><trkpt lat="43.2145284" lon="12.8220931"><ele>1370.0</ele><time>2026-05-02T12:58:28.205Z</time></trkpt><trkpt lat="43.2145939" lon="12.8220516"><ele>1370.0</ele><time>2026-05-02T12:58:29.205Z</time></trkpt><trkpt lat="43.2146599" lon="12.8220077"><ele>1370.0</ele><time>2026-05-02T12:58:30.205Z</time></trkpt><trkpt lat="43.2147179" lon="12.8219688"><ele>1370.0</ele><time>2026-05-02T12:58:31.204Z</time></trkpt><trkpt lat="43.2148157" lon="12.8219061"><ele>1368.0</ele><time>2026-05-02T12:58:33.205Z</time></trkpt><trkpt lat="43.214896" lon="12.8218505"><ele>1366.0</ele><time>2026-05-02T12:58:35.205Z</time></trkpt><trkpt lat="43.2149776" lon="12.821796"><ele>1364.0</ele><time>2026-05-02T12:58:37.205Z</time></trkpt><trkpt lat="43.2150686" lon="12.821736"><ele>1362.0</ele><time>2026-05-02T12:58:39.205Z</time></trkpt><trkpt lat="43.2151549" lon="12.8216545"><ele>1360.0</ele><time>2026-05-02T12:58:41.205Z</time></trkpt><trkpt lat="43.2152433" lon="12.8215444"><ele>1360.0</ele><time>2026-05-02T12:58:43.205Z</time></trkpt><trkpt lat="43.2153239" lon="12.821411"><ele>1360.0</ele><time>2026-05-02T12:58:45.205Z</time></trkpt><trkpt lat="43.2153945" lon="12.82129"><ele>1360.0</ele><time>2026-05-02T12:58:47.205Z</time></trkpt><trkpt lat="43.2154637" lon="12.8211829"><ele>1360.0</ele><time>2026-05-02T12:58:49.205Z</time></trkpt><trkpt lat="43.215537" lon="12.8210878"><ele>1360.0</ele><time>2026-05-02T12:58:51.205Z</time></trkpt><trkpt lat="43.2156027" lon="12.8209859"><ele>1358.2</ele><time>2026-05-02T12:58:53.204Z</time></trkpt><trkpt lat="43.2156847" lon="12.8208781"><ele>1356.4</ele><time>2026-05-02T12:58:55.204Z</time></trkpt><trkpt lat="43.2157351" lon="12.8208262"><ele>1354.6</ele><time>2026-05-02T12:58:56.205Z</time></trkpt><trkpt lat="43.215818" lon="12.82075"><ele>1352.8</ele><time>2026-05-02T12:58:58.206Z</time></trkpt><trkpt lat="43.2159189" lon="12.8206722"><ele>1351.0</ele><time>2026-05-02T12:59:00.205Z</time></trkpt><trkpt lat="43.2160193" lon="12.8206107"><ele>1351.0</ele><time>2026-05-02T12:59:02.204Z</time></trkpt><trkpt lat="43.2161327" lon="12.8205469"><ele>1351.0</ele><time>2026-05-02T12:59:04.204Z</time></trkpt><trkpt lat="43.2161957" lon="12.8205048"><ele>1351.0</ele><time>2026-05-02T12:59:05.205Z</time></trkpt><trkpt lat="43.2162646" lon="12.820457"><ele>1351.0</ele><time>2026-05-02T12:59:06.204Z</time></trkpt><trkpt lat="43.2163241" lon="12.8204153"><ele>1351.0</ele><time>2026-05-02T12:59:07.205Z</time></trkpt><trkpt lat="43.2163829" lon="12.8203747"><ele>1351.0</ele><time>2026-05-02T12:59:08.205Z</time></trkpt><trkpt lat="43.2164944" lon="12.820311"><ele>1350.1999999999998</ele><time>2026-05-02T12:59:10.205Z</time></trkpt><trkpt lat="43.2165926" lon="12.8202711"><ele>1349.3999999999999</ele><time>2026-05-02T12:59:12.205Z</time></trkpt><trkpt lat="43.2166999" lon="12.8202448"><ele>1348.6</ele><time>2026-05-02T12:59:14.205Z</time></trkpt><trkpt lat="43.2168032" lon="12.8202136"><ele>1347.8</ele><time>2026-05-02T12:59:16.204Z</time></trkpt><trkpt lat="43.2168671" lon="12.8201859"><ele>1347.0</ele><time>2026-05-02T12:59:17.204Z</time></trkpt><trkpt lat="43.2169772" lon="12.8201275"><ele>1344.8</ele><time>2026-05-02T12:59:19.205Z</time></trkpt><trkpt lat="43.2170573" lon="12.820042"><ele>1342.6</ele><time>2026-05-02T12:59:21.205Z</time></trkpt><trkpt lat="43.2171182" lon="12.8199466"><ele>1340.3999999999999</ele><time>2026-05-02T12:59:23.205Z</time></trkpt><trkpt lat="43.2171813" lon="12.8198533"><ele>1338.1999999999998</ele><time>2026-05-02T12:59:25.205Z</time></trkpt><trkpt lat="43.2172439" lon="12.8197544"><ele>1336.0</ele><time>2026-05-02T12:59:27.205Z</time></trkpt><trkpt lat="43.2172989" lon="12.819656"><ele>1335.4</ele><time>2026-05-02T12:59:29.205Z</time></trkpt><trkpt lat="43.21735" lon="12.8195487"><ele>1334.8</ele><time>2026-05-02T12:59:31.205Z</time></trkpt><trkpt lat="43.2173996" lon="12.819454"><ele>1334.2</ele><time>2026-05-02T12:59:33.205Z</time></trkpt><trkpt lat="43.2174476" lon="12.819352"><ele>1333.6000000000001</ele><time>2026-05-02T12:59:35.205Z</time></trkpt><trkpt lat="43.2174951" lon="12.8192473"><ele>1333.0</ele><time>2026-05-02T12:59:37.204Z</time></trkpt><trkpt lat="43.2175511" lon="12.8191356"><ele>1329.0</ele><time>2026-05-02T12:59:39.204Z</time></trkpt><trkpt lat="43.2176007" lon="12.819031"><ele>1325.0</ele><time>2026-05-02T12:59:41.205Z</time></trkpt><trkpt lat="43.2176477" lon="12.8189298"><ele>1321.0</ele><time>2026-05-02T12:59:43.205Z</time></trkpt><trkpt lat="43.2177027" lon="12.8188068"><ele>1317.0</ele><time>2026-05-02T12:59:45.204Z</time></trkpt><trkpt lat="43.2177701" lon="12.8186805"><ele>1313.0</ele><time>2026-05-02T12:59:47.205Z</time></trkpt><trkpt lat="43.2178438" lon="12.8185593"><ele>1310.1666666666667</ele><time>2026-05-02T12:59:49.205Z</time></trkpt><trkpt lat="43.2179142" lon="12.8184618"><ele>1307.3333333333335</ele><time>2026-05-02T12:59:51.205Z</time></trkpt><trkpt lat="43.2179848" lon="12.818399"><ele>1304.5</ele><time>2026-05-02T12:59:53.205Z</time></trkpt><trkpt lat="43.2180657" lon="12.8183714"><ele>1301.6666666666667</ele><time>2026-05-02T12:59:56.205Z</time></trkpt><trkpt lat="43.218157" lon="12.8183618"><ele>1298.8333333333333</ele><time>2026-05-02T12:59:59.204Z</time></trkpt><trkpt lat="43.218228" lon="12.8183676"><ele>1296.0</ele><time>2026-05-02T13:00:01.204Z</time></trkpt><trkpt lat="43.2182927" lon="12.818366"><ele>1294.8</ele><time>2026-05-02T13:00:03.205Z</time></trkpt><trkpt lat="43.218335" lon="12.8182701"><ele>1293.6</ele><time>2026-05-02T13:00:05.205Z</time></trkpt><trkpt lat="43.2183524" lon="12.818112"><ele>1292.4</ele><time>2026-05-02T13:00:07.206Z</time></trkpt><trkpt lat="43.218383" lon="12.8179406"><ele>1291.2</ele><time>2026-05-02T13:00:09.205Z</time></trkpt><trkpt lat="43.2184069" lon="12.8178506"><ele>1290.0</ele><time>2026-05-02T13:00:10.205Z</time></trkpt><trkpt lat="43.2184351" lon="12.8177595"><ele>1290.0</ele><time>2026-05-02T13:00:11.205Z</time></trkpt><trkpt lat="43.218463" lon="12.8176663"><ele>1290.0</ele><time>2026-05-02T13:00:12.205Z</time></trkpt><trkpt lat="43.2184902" lon="12.8175705"><ele>1290.0</ele><time>2026-05-02T13:00:13.205Z</time></trkpt><trkpt lat="43.218515" lon="12.8174701"><ele>1290.0</ele><time>2026-05-02T13:00:14.205Z</time></trkpt><trkpt lat="43.2185414" lon="12.8173716"><ele>1290.0</ele><time>2026-05-02T13:00:15.205Z</time></trkpt><trkpt lat="43.2185675" lon="12.817266"><ele>1290.0</ele><time>2026-05-02T13:00:16.206Z</time></trkpt><trkpt lat="43.2185939" lon="12.8171555"><ele>1286.3333333333333</ele><time>2026-05-02T13:00:17.205Z</time></trkpt><trkpt lat="43.218624" lon="12.8170379"><ele>1282.6666666666667</ele><time>2026-05-02T13:00:18.204Z</time></trkpt><trkpt lat="43.2186531" lon="12.8169178"><ele>1279.0</ele><time>2026-05-02T13:00:19.205Z</time></trkpt><trkpt lat="43.2186788" lon="12.8168106"><ele>1275.3333333333335</ele><time>2026-05-02T13:00:20.205Z</time></trkpt><trkpt lat="43.2186997" lon="12.8167131"><ele>1271.6666666666667</ele><time>2026-05-02T13:00:21.205Z</time></trkpt><trkpt lat="43.2187235" lon="12.8166194"><ele>1268.0</ele><time>2026-05-02T13:00:22.205Z</time></trkpt><trkpt lat="43.2187493" lon="12.81653"><ele>1265.5</ele><time>2026-05-02T13:00:23.205Z</time></trkpt><trkpt lat="43.2187712" lon="12.8164368"><ele>1263.0</ele><time>2026-05-02T13:00:24.205Z</time></trkpt><trkpt lat="43.2187925" lon="12.8163473"><ele>1260.5</ele><time>2026-05-02T13:00:25.204Z</time></trkpt><trkpt lat="43.2188088" lon="12.8162613"><ele>1258.0</ele><time>2026-05-02T13:00:26.205Z</time></trkpt><trkpt lat="43.2188254" lon="12.816096"><ele>1255.5</ele><time>2026-05-02T13:00:28.205Z</time></trkpt><trkpt lat="43.2188397" lon="12.8159395"><ele>1253.0</ele><time>2026-05-02T13:00:30.205Z</time></trkpt><trkpt lat="43.2188508" lon="12.8157964"><ele>1250.0</ele><time>2026-05-02T13:00:32.205Z</time></trkpt><trkpt lat="43.2188542" lon="12.8156701"><ele>1247.0</ele><time>2026-05-02T13:00:34.205Z</time></trkpt><trkpt lat="43.2188599" lon="12.8155535"><ele>1244.0</ele><time>2026-05-02T13:00:36.205Z</time></trkpt><trkpt lat="43.2188873" lon="12.8154656"><ele>1241.0</ele><time>2026-05-02T13:00:39.205Z</time></trkpt><trkpt lat="43.2189885" lon="12.8154447"><ele>1238.0</ele><time>2026-05-02T13:00:42.204Z</time></trkpt><trkpt lat="43.2190719" lon="12.8154719"><ele>1235.0</ele><time>2026-05-02T13:00:44.204Z</time></trkpt><trkpt lat="43.2191534" lon="12.81549"><ele>1235.0</ele><time>2026-05-02T13:00:46.204Z</time></trkpt><trkpt lat="43.2192426" lon="12.8154926"><ele>1235.0</ele><time>2026-05-02T13:00:48.205Z</time></trkpt><trkpt lat="43.2192963" lon="12.8154391"><ele>1235.0</ele><time>2026-05-02T13:00:50.205Z</time></trkpt><trkpt lat="43.219334" lon="12.8153514"><ele>1235.0</ele><time>2026-05-02T13:00:53.205Z</time></trkpt><trkpt lat="43.2193609" lon="12.8152385"><ele>1235.0</ele><time>2026-05-02T13:01:01.205Z</time></trkpt><trkpt lat="43.2194121" lon="12.815181"><ele>1235.0</ele><time>2026-05-02T13:01:03.205Z</time></trkpt><trkpt lat="43.2194784" lon="12.8151071"><ele>1234.7142857142856</ele><time>2026-05-02T13:01:06.204Z</time></trkpt><trkpt lat="43.219531" lon="12.8150361"><ele>1234.4285714285713</ele><time>2026-05-02T13:01:08.205Z</time></trkpt><trkpt lat="43.2195802" lon="12.814968"><ele>1234.142857142857</ele><time>2026-05-02T13:01:10.205Z</time></trkpt><trkpt lat="43.2196361" lon="12.814874"><ele>1233.8571428571427</ele><time>2026-05-02T13:01:13.204Z</time></trkpt><trkpt lat="43.2196535" lon="12.8147904"><ele>1233.5714285714284</ele><time>2026-05-02T13:04:32.204Z</time></trkpt><trkpt lat="43.219675" lon="12.814683"><ele>1233.2857142857142</ele><time>2026-05-02T13:04:36.204Z</time></trkpt><trkpt lat="43.2197274" lon="12.8146166"><ele>1233.0</ele><time>2026-05-02T13:04:39.205Z</time></trkpt><trkpt lat="43.2197856" lon="12.814546"><ele>1230.0</ele><time>2026-05-02T13:04:42.205Z</time></trkpt><trkpt lat="43.2198429" lon="12.8144884"><ele>1227.0</ele><time>2026-05-02T13:04:45.204Z</time></trkpt><trkpt lat="43.2199134" lon="12.8144353"><ele>1224.0</ele><time>2026-05-02T13:04:48.205Z</time></trkpt><trkpt lat="43.2199947" lon="12.8143783"><ele>1221.0</ele><time>2026-05-02T13:04:51.205Z</time></trkpt><trkpt lat="43.2200709" lon="12.8143425"><ele>1218.0</ele><time>2026-05-02T13:04:54.204Z</time></trkpt><trkpt lat="43.2201361" lon="12.814307"><ele>1215.0</ele><time>2026-05-02T13:04:57.205Z</time></trkpt><trkpt lat="43.2202098" lon="12.8142557"><ele>1215.0</ele><time>2026-05-02T13:05:00.205Z</time></trkpt><trkpt lat="43.2202753" lon="12.814214"><ele>1215.0</ele><time>2026-05-02T13:05:03.204Z</time></trkpt><trkpt lat="43.22034" lon="12.814159"><ele>1215.0</ele><time>2026-05-02T13:05:06.205Z</time></trkpt><trkpt lat="43.2204236" lon="12.814089"><ele>1215.0</ele><time>2026-05-02T13:05:09.205Z</time></trkpt><trkpt lat="43.2204944" lon="12.8140017"><ele>1215.0</ele><time>2026-05-02T13:05:11.205Z</time></trkpt><trkpt lat="43.2205501" lon="12.8139231"><ele>1215.0</ele><time>2026-05-02T13:05:14.204Z</time></trkpt><trkpt lat="43.2206059" lon="12.8138443"><ele>1209.3333333333333</ele><time>2026-05-02T13:05:17.205Z</time></trkpt><trkpt lat="43.2206623" lon="12.8137816"><ele>1203.6666666666667</ele><time>2026-05-02T13:05:20.205Z</time></trkpt><trkpt lat="43.2207203" lon="12.813735"><ele>1198.0</ele><time>2026-05-02T13:05:23.205Z</time></trkpt><trkpt lat="43.2207799" lon="12.8136834"><ele>1192.3333333333335</ele><time>2026-05-02T13:05:25.205Z</time></trkpt><trkpt lat="43.2208425" lon="12.8136447"><ele>1186.6666666666667</ele><time>2026-05-02T13:05:27.204Z</time></trkpt><trkpt lat="43.220912" lon="12.8135615"><ele>1181.0</ele><time>2026-05-02T13:05:30.205Z</time></trkpt><trkpt lat="43.2209797" lon="12.8134834"><ele>1181.0</ele><time>2026-05-02T13:05:33.204Z</time></trkpt><trkpt lat="43.2210218" lon="12.8134178"><ele>1181.0</ele><time>2026-05-02T13:05:35.205Z</time></trkpt><trkpt lat="43.2210797" lon="12.8133548"><ele>1181.0</ele><time>2026-05-02T13:05:40.205Z</time></trkpt><trkpt lat="43.2211456" lon="12.8133037"><ele>1181.0</ele><time>2026-05-02T13:05:44.205Z</time></trkpt><trkpt lat="43.2212075" lon="12.8132492"><ele>1181.0</ele><time>2026-05-02T13:05:47.205Z</time></trkpt><trkpt lat="43.2212678" lon="12.8131866"><ele>1181.0</ele><time>2026-05-02T13:05:52.205Z</time></trkpt><trkpt lat="43.2213308" lon="12.8131656"><ele>1181.0</ele><time>2026-05-02T13:05:56.205Z</time></trkpt><trkpt lat="43.2213915" lon="12.813212"><ele>1181.0</ele><time>2026-05-02T13:06:01.205Z</time></trkpt><trkpt lat="43.2214306" lon="12.8132847"><ele>1181.0</ele><time>2026-05-02T13:06:06.205Z</time></trkpt><trkpt lat="43.2214604" lon="12.813367"><ele>1181.0</ele><time>2026-05-02T13:06:10.205Z</time></trkpt><trkpt lat="43.2214968" lon="12.813463"><ele>1181.0</ele><time>2026-05-02T13:06:15.204Z</time></trkpt><trkpt lat="43.2215467" lon="12.8135469"><ele>1181.0</ele><time>2026-05-02T13:06:43.205Z</time></trkpt><trkpt lat="43.2215786" lon="12.8136325"><ele>1181.0</ele><time>2026-05-02T13:06:47.204Z</time></trkpt><trkpt lat="43.2216138" lon="12.8137062"><ele>1181.0</ele><time>2026-05-02T13:06:51.205Z</time></trkpt><trkpt lat="43.2216403" lon="12.8137916"><ele>1174.1666666666667</ele><time>2026-05-02T13:06:55.205Z</time></trkpt><trkpt lat="43.2216647" lon="12.8138979"><ele>1167.3333333333335</ele><time>2026-05-02T13:07:00.204Z</time></trkpt><trkpt lat="43.2217037" lon="12.8140027"><ele>1160.5</ele><time>2026-05-02T13:07:03.205Z</time></trkpt><trkpt lat="43.2217446" lon="12.814075"><ele>1153.6666666666667</ele><time>2026-05-02T13:07:05.205Z</time></trkpt><trkpt lat="43.2217665" lon="12.8141653"><ele>1146.8333333333333</ele><time>2026-05-02T13:07:08.204Z</time></trkpt><trkpt lat="43.2217859" lon="12.814262"><ele>1140.0</ele><time>2026-05-02T13:07:11.205Z</time></trkpt><trkpt lat="43.2218116" lon="12.8143602"><ele>1139.6666666666667</ele><time>2026-05-02T13:07:14.205Z</time></trkpt><trkpt lat="43.2218338" lon="12.8144831"><ele>1139.3333333333333</ele><time>2026-05-02T13:07:17.204Z</time></trkpt><trkpt lat="43.2218513" lon="12.8145803"><ele>1139.0</ele><time>2026-05-02T13:07:20.205Z</time></trkpt><trkpt lat="43.2218558" lon="12.8146841"><ele>1138.6666666666665</ele><time>2026-05-02T13:07:23.205Z</time></trkpt><trkpt lat="43.2218623" lon="12.8147918"><ele>1138.3333333333333</ele><time>2026-05-02T13:07:26.205Z</time></trkpt><trkpt lat="43.221879" lon="12.8148824"><ele>1138.0</ele><time>2026-05-02T13:07:29.204Z</time></trkpt><trkpt lat="43.2218924" lon="12.8149841"><ele>1138.0000000000002</ele><time>2026-05-02T13:07:50.204Z</time></trkpt><trkpt lat="43.2219294" lon="12.815062"><ele>1138.0</ele><time>2026-05-02T13:11:00.205Z</time></trkpt><trkpt lat="43.2219834" lon="12.8151515"><ele>1138.0</ele><time>2026-05-02T13:11:04.205Z</time></trkpt><trkpt lat="43.2220133" lon="12.8152298"><ele>1138.0</ele><time>2026-05-02T13:11:08.205Z</time></trkpt><trkpt lat="43.2220347" lon="12.8153314"><ele>1138.0</ele><time>2026-05-02T13:11:12.204Z</time></trkpt><trkpt lat="43.2220622" lon="12.8154383"><ele>1138.0000000000002</ele><time>2026-05-02T13:11:16.205Z</time></trkpt><trkpt lat="43.2220962" lon="12.8155245"><ele>1138.0</ele><time>2026-05-02T13:11:19.205Z</time></trkpt><trkpt lat="43.2221219" lon="12.8156116"><ele>1138.1428571428573</ele><time>2026-05-02T13:11:22.205Z</time></trkpt><trkpt lat="43.2221331" lon="12.8157187"><ele>1138.2857142857142</ele><time>2026-05-02T13:11:25.204Z</time></trkpt><trkpt lat="43.2221599" lon="12.8158256"><ele>1138.4285714285716</ele><time>2026-05-02T13:11:29.205Z</time></trkpt><trkpt lat="43.2221605" lon="12.815912"><ele>1138.5714285714287</ele><time>2026-05-02T13:11:42.204Z</time></trkpt><trkpt lat="43.2221377" lon="12.8160034"><ele>1138.7142857142858</ele><time>2026-05-02T13:11:46.204Z</time></trkpt><trkpt lat="43.2221191" lon="12.8160975"><ele>1138.857142857143</ele><time>2026-05-02T13:11:50.205Z</time></trkpt><trkpt lat="43.2221708" lon="12.8161769"><ele>1139.0</ele><time>2026-05-02T13:11:54.205Z</time></trkpt><trkpt lat="43.2222256" lon="12.8162221"><ele>1140.142857142857</ele><time>2026-05-02T13:11:57.205Z</time></trkpt><trkpt lat="43.2223008" lon="12.8162637"><ele>1141.2857142857144</ele><time>2026-05-02T13:12:01.205Z</time></trkpt><trkpt lat="43.222369" lon="12.8163221"><ele>1142.4285714285716</ele><time>2026-05-02T13:12:05.205Z</time></trkpt><trkpt lat="43.2224125" lon="12.8163954"><ele>1143.5714285714287</ele><time>2026-05-02T13:12:09.204Z</time></trkpt><trkpt lat="43.2224549" lon="12.8164719"><ele>1144.7142857142858</ele><time>2026-05-02T13:12:13.205Z</time></trkpt><trkpt lat="43.2225082" lon="12.8165546"><ele>1145.857142857143</ele><time>2026-05-02T13:12:17.205Z</time></trkpt><trkpt lat="43.2225501" lon="12.8166261"><ele>1147.0</ele><time>2026-05-02T13:12:21.205Z</time></trkpt><trkpt lat="43.2225932" lon="12.8167123"><ele>1141.4</ele><time>2026-05-02T13:12:26.205Z</time></trkpt><trkpt lat="43.2227208" lon="12.8168181"><ele>1135.8000000000002</ele><time>2026-05-02T13:12:29.204Z</time></trkpt><trkpt lat="43.2227686" lon="12.8168986"><ele>1130.2</ele><time>2026-05-02T13:12:33.205Z</time></trkpt><trkpt lat="43.2228118" lon="12.8170006"><ele>1124.6000000000001</ele><time>2026-05-02T13:12:37.204Z</time></trkpt><trkpt lat="43.2228455" lon="12.8170755"><ele>1119.0</ele><time>2026-05-02T13:12:39.205Z</time></trkpt><trkpt lat="43.2228806" lon="12.8171667"><ele>1119.0</ele><time>2026-05-02T13:12:41.204Z</time></trkpt><trkpt lat="43.2229252" lon="12.8172346"><ele>1119.0</ele><time>2026-05-02T13:12:43.205Z</time></trkpt><trkpt lat="43.222999" lon="12.81727"><ele>1119.0</ele><time>2026-05-02T13:16:34.204Z</time></trkpt><trkpt lat="43.223068" lon="12.8172638"><ele>1119.0</ele><time>2026-05-02T13:16:37.204Z</time></trkpt><trkpt lat="43.2231452" lon="12.8172995"><ele>1119.0</ele><time>2026-05-02T13:16:40.204Z</time></trkpt><trkpt lat="43.2232062" lon="12.8173297"><ele>1119.0</ele><time>2026-05-02T13:16:42.204Z</time></trkpt><trkpt lat="43.2232797" lon="12.8173722"><ele>1119.0</ele><time>2026-05-02T13:16:46.203Z</time></trkpt><trkpt lat="43.2233302" lon="12.8174332"><ele>1113.2857142857142</ele><time>2026-05-02T13:16:49.203Z</time></trkpt><trkpt lat="43.2233655" lon="12.817517"><ele>1107.5714285714287</ele><time>2026-05-02T13:16:52.204Z</time></trkpt><trkpt lat="43.2234087" lon="12.8176158"><ele>1101.857142857143</ele><time>2026-05-02T13:16:56.204Z</time></trkpt><trkpt lat="43.2234486" lon="12.8176943"><ele>1096.142857142857</ele><time>2026-05-02T13:16:59.204Z</time></trkpt><trkpt lat="43.2234863" lon="12.8177821"><ele>1090.4285714285713</ele><time>2026-05-02T13:17:02.204Z</time></trkpt><trkpt lat="43.2235206" lon="12.817859"><ele>1084.7142857142858</ele><time>2026-05-02T13:17:05.204Z</time></trkpt><trkpt lat="43.2235561" lon="12.8179368"><ele>1079.0</ele><time>2026-05-02T13:17:08.204Z</time></trkpt><trkpt lat="43.2236105" lon="12.8180257"><ele>1079.0</ele><time>2026-05-02T13:17:11.204Z</time></trkpt><trkpt lat="43.2236407" lon="12.8181217"><ele>1079.0</ele><time>2026-05-02T13:17:15.204Z</time></trkpt><trkpt lat="43.2236692" lon="12.8182144"><ele>1079.0</ele><time>2026-05-02T13:17:19.204Z</time></trkpt><trkpt lat="43.2236868" lon="12.8183051"><ele>1079.0</ele><time>2026-05-02T13:17:22.169Z</time></trkpt><trkpt lat="43.2237297" lon="12.8184194"><ele>1079.0</ele><time>2026-05-02T13:18:30.204Z</time></trkpt><trkpt lat="43.2237664" lon="12.8184937"><ele>1079.0</ele><time>2026-05-02T13:18:32.204Z</time></trkpt><trkpt lat="43.2238008" lon="12.8185868"><ele>1079.7142857142858</ele><time>2026-05-02T13:18:36.204Z</time></trkpt><trkpt lat="43.2238324" lon="12.8186642"><ele>1080.4285714285713</ele><time>2026-05-02T13:18:39.109Z</time></trkpt><trkpt lat="43.2238584" lon="12.8187572"><ele>1081.142857142857</ele><time>2026-05-02T13:18:42.219Z</time></trkpt><trkpt lat="43.2238936" lon="12.8188419"><ele>1081.857142857143</ele><time>2026-05-02T13:18:45.204Z</time></trkpt><trkpt lat="43.2239071" lon="12.8189388"><ele>1082.5714285714287</ele><time>2026-05-02T13:18:48.203Z</time></trkpt><trkpt lat="43.2239171" lon="12.8190497"><ele>1083.2857142857142</ele><time>2026-05-02T13:18:52.204Z</time></trkpt><trkpt lat="43.2239285" lon="12.8191347"><ele>1084.0</ele><time>2026-05-02T13:18:55.204Z</time></trkpt><trkpt lat="43.2239357" lon="12.8192227"><ele>1084.0</ele><time>2026-05-02T13:18:58.205Z</time></trkpt><trkpt lat="43.2239596" lon="12.8193312"><ele>1084.0</ele><time>2026-05-02T13:19:02.204Z</time></trkpt><trkpt lat="43.2239685" lon="12.8194307"><ele>1084.0</ele><time>2026-05-02T13:19:05.205Z</time></trkpt><trkpt lat="43.223977" lon="12.8195205"><ele>1084.0</ele><time>2026-05-02T13:19:08.22Z</time></trkpt><trkpt lat="43.2239909" lon="12.8196293"><ele>1084.0</ele><time>2026-05-02T13:19:11.203Z</time></trkpt><trkpt lat="43.2240042" lon="12.8197319"><ele>1084.0</ele><time>2026-05-02T13:19:14.112Z</time></trkpt><trkpt lat="43.2240202" lon="12.8198445"><ele>1074.857142857143</ele><time>2026-05-02T13:19:18.204Z</time></trkpt><trkpt lat="43.2240361" lon="12.8199318"><ele>1065.7142857142858</ele><time>2026-05-02T13:19:21.204Z</time></trkpt><trkpt lat="43.2240428" lon="12.8200227"><ele>1056.5714285714287</ele><time>2026-05-02T13:19:24.205Z</time></trkpt><trkpt lat="43.2240325" lon="12.820127"><ele>1047.4285714285716</ele><time>2026-05-02T13:19:27.237Z</time></trkpt><trkpt lat="43.2240224" lon="12.8202366"><ele>1038.2857142857144</ele><time>2026-05-02T13:19:31.13Z</time></trkpt><trkpt lat="43.2240326" lon="12.8203666"><ele>1029.142857142857</ele><time>2026-05-02T13:19:34.204Z</time></trkpt><trkpt lat="43.2240438" lon="12.8204535"><ele>1020.0</ele><time>2026-05-02T13:19:36.204Z</time></trkpt><trkpt lat="43.2240667" lon="12.8205759"><ele>1020.0</ele><time>2026-05-02T13:19:39.204Z</time></trkpt><trkpt lat="43.2240858" lon="12.8206668"><ele>1020.0000000000001</ele><time>2026-05-02T13:19:41.205Z</time></trkpt><trkpt lat="43.2240911" lon="12.8207613"><ele>1020.0</ele><time>2026-05-02T13:19:44.204Z</time></trkpt><trkpt lat="43.2241067" lon="12.8208588"><ele>1020.0</ele><time>2026-05-02T13:19:53.203Z</time></trkpt><trkpt lat="43.2241057" lon="12.8209546"><ele>1020.0000000000001</ele><time>2026-05-02T13:19:57.204Z</time></trkpt><trkpt lat="43.2241182" lon="12.8210425"><ele>1020.0</ele><time>2026-05-02T13:20:00.203Z</time></trkpt><trkpt lat="43.2241396" lon="12.8211367"><ele>1020.0</ele><time>2026-05-02T13:20:04.204Z</time></trkpt><trkpt lat="43.2241647" lon="12.8212254"><ele>1020.5</ele><time>2026-05-02T13:20:20.204Z</time></trkpt><trkpt lat="43.2241996" lon="12.8213067"><ele>1021.0</ele><time>2026-05-02T13:20:23.204Z</time></trkpt><trkpt lat="43.2242418" lon="12.8213906"><ele>1021.5</ele><time>2026-05-02T13:20:26.204Z</time></trkpt><trkpt lat="43.224279" lon="12.8215019"><ele>1022.0</ele><time>2026-05-02T13:20:29.203Z</time></trkpt><trkpt lat="43.2243242" lon="12.8216137"><ele>1022.5</ele><time>2026-05-02T13:20:32.204Z</time></trkpt><trkpt lat="43.2243692" lon="12.821703"><ele>1023.0</ele><time>2026-05-02T13:20:34.204Z</time></trkpt><trkpt lat="43.2244135" lon="12.8218036"><ele>1024.5</ele><time>2026-05-02T13:20:36.204Z</time></trkpt><trkpt lat="43.2244691" lon="12.821904"><ele>1026.0</ele><time>2026-05-02T13:20:38.204Z</time></trkpt><trkpt lat="43.2245285" lon="12.8219917"><ele>1027.5</ele><time>2026-05-02T13:20:40.204Z</time></trkpt><trkpt lat="43.2245628" lon="12.8220861"><ele>1029.0</ele><time>2026-05-02T13:20:42.204Z</time></trkpt><trkpt lat="43.2245852" lon="12.822169"><ele>1030.5</ele><time>2026-05-02T13:20:44.203Z</time></trkpt><trkpt lat="43.2245993" lon="12.8222582"><ele>1032.0</ele><time>2026-05-02T13:20:46.204Z</time></trkpt><trkpt lat="43.2246423" lon="12.8223734"><ele>1032.0</ele><time>2026-05-02T13:20:49.204Z</time></trkpt><trkpt lat="43.2246818" lon="12.8224905"><ele>1032.0</ele><time>2026-05-02T13:20:52.204Z</time></trkpt><trkpt lat="43.2247365" lon="12.8226144"><ele>1032.0</ele><time>2026-05-02T13:20:55.203Z</time></trkpt><trkpt lat="43.2247775" lon="12.8227237"><ele>1032.0</ele><time>2026-05-02T13:20:57.204Z</time></trkpt><trkpt lat="43.2248098" lon="12.8228198"><ele>1032.0</ele><time>2026-05-02T13:20:59.204Z</time></trkpt><trkpt lat="43.2248506" lon="12.8229295"><ele>1024.1666666666667</ele><time>2026-05-02T13:21:01.204Z</time></trkpt><trkpt lat="43.2248992" lon="12.8230117"><ele>1016.3333333333333</ele><time>2026-05-02T13:21:03.204Z</time></trkpt><trkpt lat="43.2249288" lon="12.8231107"><ele>1008.5</ele><time>2026-05-02T13:21:06.203Z</time></trkpt><trkpt lat="43.2249455" lon="12.8231965"><ele>1000.6666666666666</ele><time>2026-05-02T13:23:11.204Z</time></trkpt><trkpt lat="43.2249978" lon="12.8233184"><ele>992.8333333333333</ele><time>2026-05-02T13:23:14.203Z</time></trkpt><trkpt lat="43.2250523" lon="12.8234234"><ele>985.0</ele><time>2026-05-02T13:23:16.204Z</time></trkpt><trkpt lat="43.2250817" lon="12.8235087"><ele>984.9999999999999</ele><time>2026-05-02T13:23:17.204Z</time></trkpt><trkpt lat="43.2250851" lon="12.8236031"><ele>985.0</ele><time>2026-05-02T13:23:19.204Z</time></trkpt><trkpt lat="43.2251162" lon="12.8236858"><ele>985.0</ele><time>2026-05-02T13:23:21.204Z</time></trkpt><trkpt lat="43.2251452" lon="12.8237683"><ele>985.0</ele><time>2026-05-02T13:23:23.204Z</time></trkpt><trkpt lat="43.2251664" lon="12.8238906"><ele>984.9999999999999</ele><time>2026-05-02T13:23:26.203Z</time></trkpt><trkpt lat="43.2251948" lon="12.8240218"><ele>985.0</ele><time>2026-05-02T13:23:29.203Z</time></trkpt><trkpt lat="43.2252261" lon="12.8241264"><ele>984.9999999999999</ele><time>2026-05-02T13:23:31.204Z</time></trkpt><trkpt lat="43.225289" lon="12.8242469"><ele>985.0</ele><time>2026-05-02T13:23:33.204Z</time></trkpt><trkpt lat="43.2253123" lon="12.8243402"><ele>985.0</ele><time>2026-05-02T13:23:35.204Z</time></trkpt><trkpt lat="43.2253154" lon="12.8244448"><ele>985.0</ele><time>2026-05-02T13:23:39.204Z</time></trkpt><trkpt lat="43.2253235" lon="12.8245413"><ele>984.9999999999999</ele><time>2026-05-02T13:23:41.203Z</time></trkpt><trkpt lat="43.2253337" lon="12.8246297"><ele>985.0</ele><time>2026-05-02T13:23:43.204Z</time></trkpt><trkpt lat="43.2253024" lon="12.8247139"><ele>985.4999999999999</ele><time>2026-05-02T13:23:45.204Z</time></trkpt><trkpt lat="43.2252943" lon="12.8248223"><ele>986.0</ele><time>2026-05-02T13:23:48.204Z</time></trkpt><trkpt lat="43.225319" lon="12.8249075"><ele>986.5</ele><time>2026-05-02T13:23:51.204Z</time></trkpt><trkpt lat="43.2253406" lon="12.8250154"><ele>987.0</ele><time>2026-05-02T13:24:13.204Z</time></trkpt><trkpt lat="43.225363" lon="12.8251026"><ele>987.4999999999999</ele><time>2026-05-02T13:24:15.204Z</time></trkpt><trkpt lat="43.2253721" lon="12.8252097"><ele>988.0</ele><time>2026-05-02T13:24:17.204Z</time></trkpt><trkpt lat="43.2253817" lon="12.8253334"><ele>988.0</ele><time>2026-05-02T13:24:19.204Z</time></trkpt><trkpt lat="43.2253722" lon="12.8254491"><ele>988.0</ele><time>2026-05-02T13:24:21.204Z</time></trkpt><trkpt lat="43.2253567" lon="12.8255776"><ele>988.0</ele><time>2026-05-02T13:24:23.204Z</time></trkpt><trkpt lat="43.2253931" lon="12.8257046"><ele>988.0</ele><time>2026-05-02T13:24:25.204Z</time></trkpt><trkpt lat="43.2253976" lon="12.8258483"><ele>988.0</ele><time>2026-05-02T13:24:27.204Z</time></trkpt><trkpt lat="43.2254061" lon="12.8259781"><ele>988.4999999999999</ele><time>2026-05-02T13:24:29.204Z</time></trkpt><trkpt lat="43.2254204" lon="12.8260984"><ele>989.0</ele><time>2026-05-02T13:24:31.204Z</time></trkpt><trkpt lat="43.2254306" lon="12.826189"><ele>989.5</ele><time>2026-05-02T13:24:35.205Z</time></trkpt><trkpt lat="43.2254406" lon="12.8263021"><ele>990.0</ele><time>2026-05-02T13:24:38.204Z</time></trkpt><trkpt lat="43.2254435" lon="12.8263953"><ele>990.4999999999999</ele><time>2026-05-02T13:24:40.204Z</time></trkpt><trkpt lat="43.2254256" lon="12.8265165"><ele>991.0</ele><time>2026-05-02T13:24:43.203Z</time></trkpt><trkpt lat="43.2254214" lon="12.826612"><ele>991.0000000000001</ele><time>2026-05-02T13:24:45.219Z</time></trkpt><trkpt lat="43.2254459" lon="12.8267213"><ele>991.0</ele><time>2026-05-02T13:24:48.212Z</time></trkpt><trkpt lat="43.225479" lon="12.8268171"><ele>991.0000000000001</ele><time>2026-05-02T13:24:50.19Z</time></trkpt><trkpt lat="43.2255396" lon="12.8268763"><ele>991.0000000000001</ele><time>2026-05-02T13:25:03.204Z</time></trkpt><trkpt lat="43.2256126" lon="12.8268676"><ele>991.0</ele><time>2026-05-02T13:25:06.204Z</time></trkpt><trkpt lat="43.2256743" lon="12.8268437"><ele>991.0000000000001</ele><time>2026-05-02T13:25:43.203Z</time></trkpt><trkpt lat="43.2256911" lon="12.8267488"><ele>991.0000000000001</ele><time>2026-05-02T13:25:59.204Z</time></trkpt><trkpt lat="43.2257187" lon="12.8266693"><ele>990.4285714285716</ele><time>2026-05-02T13:26:05.204Z</time></trkpt><trkpt lat="43.2257459" lon="12.8265804"><ele>989.8571428571429</ele><time>2026-05-02T13:26:09.204Z</time></trkpt><trkpt lat="43.2257951" lon="12.826511"><ele>989.2857142857143</ele><time>2026-05-02T13:40:00.202Z</time></trkpt><trkpt lat="43.2257495" lon="12.8265794"><ele>988.7142857142858</ele><time>2026-05-02T13:40:59.202Z</time></trkpt><trkpt lat="43.2257318" lon="12.8266701"><ele>988.1428571428571</ele><time>2026-05-02T13:41:51.201Z</time></trkpt><trkpt lat="43.2257057" lon="12.8267512"><ele>987.5714285714286</ele><time>2026-05-02T13:42:10.168Z</time></trkpt><trkpt lat="43.2256735" lon="12.826829"><ele>987.0</ele><time>2026-05-02T13:42:33.202Z</time></trkpt><trkpt lat="43.2255955" lon="12.8268559"><ele>987.6666666666666</ele><time>2026-05-02T13:42:39.231Z</time></trkpt><trkpt lat="43.2255385" lon="12.8268992"><ele>988.3333333333333</ele><time>2026-05-02T13:42:58.202Z</time></trkpt><trkpt lat="43.2254913" lon="12.8268365"><ele>989.0</ele><time>2026-05-02T13:43:10.202Z</time></trkpt><trkpt lat="43.2254243" lon="12.826753"><ele>989.6666666666666</ele><time>2026-05-02T13:48:50.201Z</time></trkpt><trkpt lat="43.2253608" lon="12.826669"><ele>990.3333333333333</ele><time>2026-05-02T13:48:52.201Z</time></trkpt><trkpt lat="43.2253182" lon="12.8265258"><ele>991.0</ele><time>2026-05-02T13:48:54.2Z</time></trkpt><trkpt lat="43.2252711" lon="12.8263761"><ele>991.0</ele><time>2026-05-02T13:48:56.201Z</time></trkpt><trkpt lat="43.2252541" lon="12.8262131"><ele>990.9999999999999</ele><time>2026-05-02T13:48:58.201Z</time></trkpt><trkpt lat="43.2252923" lon="12.8260603"><ele>990.9999999999999</ele><time>2026-05-02T13:49:00.201Z</time></trkpt><trkpt lat="43.2253279" lon="12.8259322"><ele>991.0</ele><time>2026-05-02T13:49:02.201Z</time></trkpt><trkpt lat="43.2253469" lon="12.8258048"><ele>991.0</ele><time>2026-05-02T13:49:04.201Z</time></trkpt><trkpt lat="43.2253621" lon="12.8256393"><ele>990.6666666666666</ele><time>2026-05-02T13:49:06.201Z</time></trkpt><trkpt lat="43.2253647" lon="12.825548"><ele>990.3333333333333</ele><time>2026-05-02T13:49:07.202Z</time></trkpt><trkpt lat="43.2253582" lon="12.825459"><ele>990.0</ele><time>2026-05-02T13:49:08.2Z</time></trkpt><trkpt lat="43.2253553" lon="12.8253652"><ele>989.6666666666667</ele><time>2026-05-02T13:49:09.2Z</time></trkpt><trkpt lat="43.2253517" lon="12.8252713"><ele>989.3333333333334</ele><time>2026-05-02T13:49:10.2Z</time></trkpt><trkpt lat="43.225241" lon="12.8251428"><ele>989.0</ele><time>2026-05-02T13:49:11.201Z</time></trkpt><trkpt lat="43.2252253" lon="12.8250181"><ele>989.0</ele><time>2026-05-02T13:49:13.201Z</time></trkpt><trkpt lat="43.2252134" lon="12.8249214"><ele>989.0000000000001</ele><time>2026-05-02T13:49:15.2Z</time></trkpt><trkpt lat="43.2252183" lon="12.8247858"><ele>989.0000000000001</ele><time>2026-05-02T13:49:17.201Z</time></trkpt><trkpt lat="43.2252448" lon="12.8246342"><ele>989.0</ele><time>2026-05-02T13:49:19.201Z</time></trkpt><trkpt lat="43.2252756" lon="12.8245243"><ele>989.0</ele><time>2026-05-02T13:49:21.201Z</time></trkpt><trkpt lat="43.2252584" lon="12.8244017"><ele>988.2</ele><time>2026-05-02T13:49:23.201Z</time></trkpt><trkpt lat="43.2252129" lon="12.8242559"><ele>987.4000000000001</ele><time>2026-05-02T13:49:25.201Z</time></trkpt><trkpt lat="43.2251612" lon="12.8241124"><ele>986.6</ele><time>2026-05-02T13:49:27.201Z</time></trkpt><trkpt lat="43.2251149" lon="12.8239985"><ele>985.8</ele><time>2026-05-02T13:49:29.201Z</time></trkpt><trkpt lat="43.22514" lon="12.8239177"><ele>985.0</ele><time>2026-05-02T13:50:15.201Z</time></trkpt><trkpt lat="43.2251277" lon="12.823784"><ele>985.0</ele><time>2026-05-02T13:50:18.201Z</time></trkpt><trkpt lat="43.2251058" lon="12.8236765"><ele>985.0</ele><time>2026-05-02T13:50:20.201Z</time></trkpt><trkpt lat="43.2250617" lon="12.8235587"><ele>985.0</ele><time>2026-05-02T13:50:23.202Z</time></trkpt><trkpt lat="43.2250162" lon="12.8234303"><ele>985.0</ele><time>2026-05-02T13:50:25.201Z</time></trkpt><trkpt lat="43.2249568" lon="12.8233002"><ele>985.0</ele><time>2026-05-02T13:50:27.201Z</time></trkpt><trkpt lat="43.2249233" lon="12.8231978"><ele>981.0</ele><time>2026-05-02T13:50:29.201Z</time></trkpt><trkpt lat="43.2248819" lon="12.8231001"><ele>981.0</ele><time>2026-05-02T13:51:19.201Z</time></trkpt><trkpt lat="43.2248447" lon="12.8230131"><ele>981.0</ele><time>2026-05-02T13:51:22.201Z</time></trkpt><trkpt lat="43.2248958" lon="12.8230694"><ele>981.0</ele><time>2026-05-02T14:03:07.2Z</time></trkpt></trkseg><trkseg><trkpt lat="43.224179" lon="12.8212609"><ele>1023.0</ele><time>2026-05-02T15:08:16.125Z</time></trkpt><trkpt lat="43.224134" lon="12.8211821"><ele>1023.0</ele><time>2026-05-02T15:08:22.229Z</time></trkpt><trkpt lat="43.22416" lon="12.8210955"><ele>1023.0</ele><time>2026-05-02T15:08:30.2Z</time></trkpt><trkpt lat="43.2241495" lon="12.821009"><ele>1023.0</ele><time>2026-05-02T15:08:37.249Z</time></trkpt><trkpt lat="43.2241336" lon="12.8209133"><ele>1023.0</ele><time>2026-05-02T15:08:45.111Z</time></trkpt><trkpt lat="43.2241248" lon="12.8208189"><ele>1023.0</ele><time>2026-05-02T15:08:52.201Z</time></trkpt><trkpt lat="43.2240822" lon="12.820752"><ele>1023.0</ele><time>2026-05-02T15:08:58.2Z</time></trkpt><trkpt lat="43.2240568" lon="12.8206725"><ele>1022.5714285714287</ele><time>2026-05-02T15:09:04.186Z</time></trkpt><trkpt lat="43.22404" lon="12.8205814"><ele>1022.1428571428571</ele><time>2026-05-02T15:09:15.201Z</time></trkpt><trkpt lat="43.2240118" lon="12.8205025"><ele>1021.7142857142858</ele><time>2026-05-02T15:09:22.228Z</time></trkpt><trkpt lat="43.2240139" lon="12.8204029"><ele>1021.2857142857143</ele><time>2026-05-02T15:09:32.105Z</time></trkpt><trkpt lat="43.2240329" lon="12.8203203"><ele>1020.8571428571429</ele><time>2026-05-02T15:09:41.2Z</time></trkpt><trkpt lat="43.2239919" lon="12.8204003"><ele>1020.4285714285714</ele><time>2026-05-02T15:09:47.212Z</time></trkpt><trkpt lat="43.223996" lon="12.8204935"><ele>1020.0</ele><time>2026-05-02T15:09:53.205Z</time></trkpt><trkpt lat="43.2240183" lon="12.8205865"><ele>1020.0</ele><time>2026-05-02T15:10:02.201Z</time></trkpt><trkpt lat="43.2240503" lon="12.8206747"><ele>1020.0000000000001</ele><time>2026-05-02T15:10:07.201Z</time></trkpt><trkpt lat="43.224081" lon="12.8207733"><ele>1020.0</ele><time>2026-05-02T15:10:13.067Z</time></trkpt><trkpt lat="43.2241086" lon="12.820875"><ele>1020.0</ele><time>2026-05-02T15:10:19.201Z</time></trkpt><trkpt lat="43.2241323" lon="12.8209655"><ele>1020.0000000000001</ele><time>2026-05-02T15:10:25.267Z</time></trkpt><trkpt lat="43.224152" lon="12.8210634"><ele>1020.0</ele><time>2026-05-02T15:10:32.201Z</time></trkpt><trkpt lat="43.2241614" lon="12.8211489"><ele>1020.0</ele><time>2026-05-02T15:10:37.201Z</time></trkpt><trkpt lat="43.2241817" lon="12.8212428"><ele>1023.0</ele><time>2026-05-02T15:10:43.21Z</time></trkpt><trkpt lat="43.2242134" lon="12.8213232"><ele>1023.0</ele><time>2026-05-02T15:10:48.728Z</time></trkpt><trkpt lat="43.2242329" lon="12.8214055"><ele>1023.0</ele><time>2026-05-02T15:17:11.105Z</time></trkpt></trkseg></trk></gpx>